<?xml version="1.0" encoding="UTF-8" standalone="no" ?>
<gpx xmlns="http://www.topografix.com/GPX/1/1" xmlns:xsi="http://www.w3.org/2001/XMLSchema-instance" xsi:schemaLocation="http://www.topografix.com/GPX/1/1 http://www.topografix.com/GPX/1/1/gpx.xsd" version="1.1" creator="VisuGPX - https://www.visugpx.com">
  <metadata>
    <name>La Molière (BIM)</name>
    <desc><![CDATA[Hélicoooooo !]]></desc>
  </metadata>
  <trk>
    <name><![CDATA[La Molière (BIM)_1]]></name>
    <trkseg>
      <trkpt lat="45.12925" lon="5.58429">
        <ele>1011</ele>
        <time>2011-09-25T11:31:04Z</time>
      </trkpt>
      <trkpt lat="45.12925" lon="5.58429">
        <ele>1011</ele>
        <time>2011-09-25T11:31:24Z</time>
      </trkpt>
      <trkpt lat="45.12935" lon="5.58431">
        <ele>1011</ele>
        <time>2011-09-25T11:31:30Z</time>
      </trkpt>
      <trkpt lat="45.12935" lon="5.58431">
        <ele>1011</ele>
        <time>2011-09-25T11:31:42Z</time>
      </trkpt>
      <trkpt lat="45.12935" lon="5.58431">
        <ele>1011</ele>
        <time>2011-09-25T11:31:52Z</time>
      </trkpt>
      <trkpt lat="45.12935" lon="5.58431">
        <ele>1011</ele>
        <time>2011-09-25T11:32:04Z</time>
      </trkpt>
      <trkpt lat="45.12935" lon="5.58431">
        <ele>1011</ele>
        <time>2011-09-25T11:32:39Z</time>
      </trkpt>
      <trkpt lat="45.12949" lon="5.58415">
        <ele>1009</ele>
        <time>2011-09-25T11:32:46Z</time>
      </trkpt>
      <trkpt lat="45.12955" lon="5.58397">
        <ele>1009</ele>
        <time>2011-09-25T11:32:52Z</time>
      </trkpt>
      <trkpt lat="45.12962" lon="5.58373">
        <ele>1009</ele>
        <time>2011-09-25T11:32:58Z</time>
      </trkpt>
      <trkpt lat="45.12967" lon="5.58357">
        <ele>1008</ele>
        <time>2011-09-25T11:33:02Z</time>
      </trkpt>
      <trkpt lat="45.12971" lon="5.58346">
        <ele>1008</ele>
        <time>2011-09-25T11:33:05Z</time>
      </trkpt>
      <trkpt lat="45.12975" lon="5.58336">
        <ele>1008</ele>
        <time>2011-09-25T11:33:08Z</time>
      </trkpt>
      <trkpt lat="45.12983" lon="5.58312">
        <ele>1007</ele>
        <time>2011-09-25T11:33:14Z</time>
      </trkpt>
      <trkpt lat="45.12988" lon="5.58295">
        <ele>1007</ele>
        <time>2011-09-25T11:33:18Z</time>
      </trkpt>
      <trkpt lat="45.12991" lon="5.58286">
        <ele>1007</ele>
        <time>2011-09-25T11:33:20Z</time>
      </trkpt>
      <trkpt lat="45.12998" lon="5.58262">
        <ele>1007</ele>
        <time>2011-09-25T11:33:26Z</time>
      </trkpt>
      <trkpt lat="45.13003" lon="5.58253">
        <ele>1006</ele>
        <time>2011-09-25T11:33:29Z</time>
      </trkpt>
      <trkpt lat="45.13015" lon="5.58239">
        <ele>1006</ele>
        <time>2011-09-25T11:33:35Z</time>
      </trkpt>
      <trkpt lat="45.13027" lon="5.58225">
        <ele>1005</ele>
        <time>2011-09-25T11:33:38Z</time>
      </trkpt>
      <trkpt lat="45.13042" lon="5.58215">
        <ele>1005</ele>
        <time>2011-09-25T11:33:42Z</time>
      </trkpt>
      <trkpt lat="45.1306" lon="5.58213">
        <ele>1005</ele>
        <time>2011-09-25T11:33:46Z</time>
      </trkpt>
      <trkpt lat="45.13076" lon="5.58205">
        <ele>1005</ele>
        <time>2011-09-25T11:33:50Z</time>
      </trkpt>
      <trkpt lat="45.13089" lon="5.5819">
        <ele>1003</ele>
        <time>2011-09-25T11:33:54Z</time>
      </trkpt>
      <trkpt lat="45.13107" lon="5.58172">
        <ele>1003</ele>
        <time>2011-09-25T11:33:58Z</time>
      </trkpt>
      <trkpt lat="45.13137" lon="5.58162">
        <ele>1005</ele>
        <time>2011-09-25T11:34:02Z</time>
      </trkpt>
      <trkpt lat="45.13172" lon="5.58168">
        <ele>1003</ele>
        <time>2011-09-25T11:34:06Z</time>
      </trkpt>
      <trkpt lat="45.13209" lon="5.58175">
        <ele>1003</ele>
        <time>2011-09-25T11:34:10Z</time>
      </trkpt>
      <trkpt lat="45.13246" lon="5.58185">
        <ele>1004</ele>
        <time>2011-09-25T11:34:14Z</time>
      </trkpt>
      <trkpt lat="45.1328" lon="5.58204">
        <ele>1004</ele>
        <time>2011-09-25T11:34:18Z</time>
      </trkpt>
      <trkpt lat="45.13314" lon="5.58227">
        <ele>1002</ele>
        <time>2011-09-25T11:34:22Z</time>
      </trkpt>
      <trkpt lat="45.13345" lon="5.58255">
        <ele>997</ele>
        <time>2011-09-25T11:34:26Z</time>
      </trkpt>
      <trkpt lat="45.13373" lon="5.58287">
        <ele>997</ele>
        <time>2011-09-25T11:34:30Z</time>
      </trkpt>
      <trkpt lat="45.13399" lon="5.58319">
        <ele>997</ele>
        <time>2011-09-25T11:34:34Z</time>
      </trkpt>
      <trkpt lat="45.13424" lon="5.58346">
        <ele>998</ele>
        <time>2011-09-25T11:34:38Z</time>
      </trkpt>
      <trkpt lat="45.1345" lon="5.58376">
        <ele>997</ele>
        <time>2011-09-25T11:34:42Z</time>
      </trkpt>
      <trkpt lat="45.13479" lon="5.58408">
        <ele>996</ele>
        <time>2011-09-25T11:34:46Z</time>
      </trkpt>
      <trkpt lat="45.13506" lon="5.58436">
        <ele>991</ele>
        <time>2011-09-25T11:34:50Z</time>
      </trkpt>
      <trkpt lat="45.13539" lon="5.58463">
        <ele>989</ele>
        <time>2011-09-25T11:34:54Z</time>
      </trkpt>
      <trkpt lat="45.13573" lon="5.58489">
        <ele>986</ele>
        <time>2011-09-25T11:34:58Z</time>
      </trkpt>
      <trkpt lat="45.13601" lon="5.58509">
        <ele>980</ele>
        <time>2011-09-25T11:35:01Z</time>
      </trkpt>
      <trkpt lat="45.13647" lon="5.58552">
        <ele>978</ele>
        <time>2011-09-25T11:35:06Z</time>
      </trkpt>
      <trkpt lat="45.13682" lon="5.5859">
        <ele>976</ele>
        <time>2011-09-25T11:35:10Z</time>
      </trkpt>
      <trkpt lat="45.13722" lon="5.58598">
        <ele>977</ele>
        <time>2011-09-25T11:35:14Z</time>
      </trkpt>
      <trkpt lat="45.1375" lon="5.58615">
        <ele>977</ele>
        <time>2011-09-25T11:35:17Z</time>
      </trkpt>
      <trkpt lat="45.13793" lon="5.58616">
        <ele>976</ele>
        <time>2011-09-25T11:35:22Z</time>
      </trkpt>
      <trkpt lat="45.13818" lon="5.58624">
        <ele>976</ele>
        <time>2011-09-25T11:35:27Z</time>
      </trkpt>
      <trkpt lat="45.13857" lon="5.58627">
        <ele>978</ele>
        <time>2011-09-25T11:35:33Z</time>
      </trkpt>
      <trkpt lat="45.13878" lon="5.58638">
        <ele>978</ele>
        <time>2011-09-25T11:35:37Z</time>
      </trkpt>
      <trkpt lat="45.13899" lon="5.58649">
        <ele>978</ele>
        <time>2011-09-25T11:35:41Z</time>
      </trkpt>
      <trkpt lat="45.13928" lon="5.58666">
        <ele>981</ele>
        <time>2011-09-25T11:35:46Z</time>
      </trkpt>
      <trkpt lat="45.1395" lon="5.58681">
        <ele>976</ele>
        <time>2011-09-25T11:35:50Z</time>
      </trkpt>
      <trkpt lat="45.13969" lon="5.58694">
        <ele>977</ele>
        <time>2011-09-25T11:35:54Z</time>
      </trkpt>
      <trkpt lat="45.13986" lon="5.58707">
        <ele>976</ele>
        <time>2011-09-25T11:35:58Z</time>
      </trkpt>
      <trkpt lat="45.14004" lon="5.58722">
        <ele>981</ele>
        <time>2011-09-25T11:36:02Z</time>
      </trkpt>
      <trkpt lat="45.14013" lon="5.58727">
        <ele>981</ele>
        <time>2011-09-25T11:36:04Z</time>
      </trkpt>
      <trkpt lat="45.14039" lon="5.58746">
        <ele>983</ele>
        <time>2011-09-25T11:36:10Z</time>
      </trkpt>
      <trkpt lat="45.14052" lon="5.58759">
        <ele>977</ele>
        <time>2011-09-25T11:36:14Z</time>
      </trkpt>
      <trkpt lat="45.14058" lon="5.58763">
        <ele>977</ele>
        <time>2011-09-25T11:36:16Z</time>
      </trkpt>
      <trkpt lat="45.14073" lon="5.58775">
        <ele>978</ele>
        <time>2011-09-25T11:36:21Z</time>
      </trkpt>
      <trkpt lat="45.14086" lon="5.58785">
        <ele>984</ele>
        <time>2011-09-25T11:36:25Z</time>
      </trkpt>
      <trkpt lat="45.14097" lon="5.58797">
        <ele>983</ele>
        <time>2011-09-25T11:36:29Z</time>
      </trkpt>
      <trkpt lat="45.14109" lon="5.58808">
        <ele>983</ele>
        <time>2011-09-25T11:36:33Z</time>
      </trkpt>
      <trkpt lat="45.14123" lon="5.58818">
        <ele>983</ele>
        <time>2011-09-25T11:36:38Z</time>
      </trkpt>
      <trkpt lat="45.14127" lon="5.58825">
        <ele>983</ele>
        <time>2011-09-25T11:36:40Z</time>
      </trkpt>
      <trkpt lat="45.14142" lon="5.5884">
        <ele>978</ele>
        <time>2011-09-25T11:36:45Z</time>
      </trkpt>
      <trkpt lat="45.14154" lon="5.58849">
        <ele>979</ele>
        <time>2011-09-25T11:36:49Z</time>
      </trkpt>
      <trkpt lat="45.14162" lon="5.58854">
        <ele>979</ele>
        <time>2011-09-25T11:36:51Z</time>
      </trkpt>
      <trkpt lat="45.14181" lon="5.58864">
        <ele>984</ele>
        <time>2011-09-25T11:36:57Z</time>
      </trkpt>
      <trkpt lat="45.14206" lon="5.58871">
        <ele>985</ele>
        <time>2011-09-25T11:37:06Z</time>
      </trkpt>
      <trkpt lat="45.14214" lon="5.58877">
        <ele>986</ele>
        <time>2011-09-25T11:37:09Z</time>
      </trkpt>
      <trkpt lat="45.14221" lon="5.58883">
        <ele>986</ele>
        <time>2011-09-25T11:37:12Z</time>
      </trkpt>
      <trkpt lat="45.14227" lon="5.58891">
        <ele>986</ele>
        <time>2011-09-25T11:37:15Z</time>
      </trkpt>
      <trkpt lat="45.14239" lon="5.58906">
        <ele>987</ele>
        <time>2011-09-25T11:37:21Z</time>
      </trkpt>
      <trkpt lat="45.14244" lon="5.58915">
        <ele>988</ele>
        <time>2011-09-25T11:37:24Z</time>
      </trkpt>
      <trkpt lat="45.14256" lon="5.58931">
        <ele>991</ele>
        <time>2011-09-25T11:37:30Z</time>
      </trkpt>
      <trkpt lat="45.14267" lon="5.58947">
        <ele>992</ele>
        <time>2011-09-25T11:37:36Z</time>
      </trkpt>
      <trkpt lat="45.14273" lon="5.58953">
        <ele>993</ele>
        <time>2011-09-25T11:37:39Z</time>
      </trkpt>
      <trkpt lat="45.14286" lon="5.58964">
        <ele>994</ele>
        <time>2011-09-25T11:37:45Z</time>
      </trkpt>
      <trkpt lat="45.14292" lon="5.58968">
        <ele>994</ele>
        <time>2011-09-25T11:37:48Z</time>
      </trkpt>
      <trkpt lat="45.14303" lon="5.58977">
        <ele>995</ele>
        <time>2011-09-25T11:37:54Z</time>
      </trkpt>
      <trkpt lat="45.14316" lon="5.58986">
        <ele>997</ele>
        <time>2011-09-25T11:38:00Z</time>
      </trkpt>
      <trkpt lat="45.14322" lon="5.58989">
        <ele>998</ele>
        <time>2011-09-25T11:38:03Z</time>
      </trkpt>
      <trkpt lat="45.14336" lon="5.58998">
        <ele>1003</ele>
        <time>2011-09-25T11:38:10Z</time>
      </trkpt>
      <trkpt lat="45.14343" lon="5.59001">
        <ele>1002</ele>
        <time>2011-09-25T11:38:13Z</time>
      </trkpt>
      <trkpt lat="45.1435" lon="5.59004">
        <ele>1002</ele>
        <time>2011-09-25T11:38:16Z</time>
      </trkpt>
      <trkpt lat="45.14356" lon="5.59009">
        <ele>1003</ele>
        <time>2011-09-25T11:38:19Z</time>
      </trkpt>
      <trkpt lat="45.14377" lon="5.59017">
        <ele>1003</ele>
        <time>2011-09-25T11:38:30Z</time>
      </trkpt>
      <trkpt lat="45.14385" lon="5.59016">
        <ele>1004</ele>
        <time>2011-09-25T11:38:33Z</time>
      </trkpt>
      <trkpt lat="45.14402" lon="5.59015">
        <ele>1005</ele>
        <time>2011-09-25T11:38:39Z</time>
      </trkpt>
      <trkpt lat="45.14416" lon="5.59015">
        <ele>1006</ele>
        <time>2011-09-25T11:38:45Z</time>
      </trkpt>
      <trkpt lat="45.14424" lon="5.59013">
        <ele>1011</ele>
        <time>2011-09-25T11:38:48Z</time>
      </trkpt>
      <trkpt lat="45.14432" lon="5.59016">
        <ele>1011</ele>
        <time>2011-09-25T11:38:52Z</time>
      </trkpt>
      <trkpt lat="45.14446" lon="5.59023">
        <ele>1013</ele>
        <time>2011-09-25T11:38:58Z</time>
      </trkpt>
      <trkpt lat="45.14452" lon="5.59028">
        <ele>1013</ele>
        <time>2011-09-25T11:39:01Z</time>
      </trkpt>
      <trkpt lat="45.14459" lon="5.59031">
        <ele>1014</ele>
        <time>2011-09-25T11:39:04Z</time>
      </trkpt>
      <trkpt lat="45.14472" lon="5.59039">
        <ele>1014</ele>
        <time>2011-09-25T11:39:10Z</time>
      </trkpt>
      <trkpt lat="45.14485" lon="5.59048">
        <ele>1015</ele>
        <time>2011-09-25T11:39:16Z</time>
      </trkpt>
      <trkpt lat="45.14496" lon="5.59058">
        <ele>1016</ele>
        <time>2011-09-25T11:39:22Z</time>
      </trkpt>
      <trkpt lat="45.14507" lon="5.59075">
        <ele>1021</ele>
        <time>2011-09-25T11:39:29Z</time>
      </trkpt>
      <trkpt lat="45.14511" lon="5.59083">
        <ele>1021</ele>
        <time>2011-09-25T11:39:32Z</time>
      </trkpt>
      <trkpt lat="45.14515" lon="5.59091">
        <ele>1021</ele>
        <time>2011-09-25T11:39:35Z</time>
      </trkpt>
      <trkpt lat="45.14526" lon="5.59107">
        <ele>1023</ele>
        <time>2011-09-25T11:39:41Z</time>
      </trkpt>
      <trkpt lat="45.14531" lon="5.59113">
        <ele>1023</ele>
        <time>2011-09-25T11:39:44Z</time>
      </trkpt>
      <trkpt lat="45.14537" lon="5.59118">
        <ele>1023</ele>
        <time>2011-09-25T11:39:47Z</time>
      </trkpt>
      <trkpt lat="45.14551" lon="5.59125">
        <ele>1024</ele>
        <time>2011-09-25T11:39:54Z</time>
      </trkpt>
      <trkpt lat="45.14558" lon="5.59124">
        <ele>1025</ele>
        <time>2011-09-25T11:39:57Z</time>
      </trkpt>
      <trkpt lat="45.14566" lon="5.59124">
        <ele>1026</ele>
        <time>2011-09-25T11:40:00Z</time>
      </trkpt>
      <trkpt lat="45.14583" lon="5.59126">
        <ele>1026</ele>
        <time>2011-09-25T11:40:06Z</time>
      </trkpt>
      <trkpt lat="45.1459" lon="5.59128">
        <ele>1033</ele>
        <time>2011-09-25T11:40:09Z</time>
      </trkpt>
      <trkpt lat="45.14609" lon="5.59145">
        <ele>1033</ele>
        <time>2011-09-25T11:40:18Z</time>
      </trkpt>
      <trkpt lat="45.14619" lon="5.5916">
        <ele>1033</ele>
        <time>2011-09-25T11:40:24Z</time>
      </trkpt>
      <trkpt lat="45.14625" lon="5.59164">
        <ele>1034</ele>
        <time>2011-09-25T11:40:27Z</time>
      </trkpt>
      <trkpt lat="45.14639" lon="5.59174">
        <ele>1031</ele>
        <time>2011-09-25T11:40:33Z</time>
      </trkpt>
      <trkpt lat="45.14646" lon="5.59177">
        <ele>1032</ele>
        <time>2011-09-25T11:40:36Z</time>
      </trkpt>
      <trkpt lat="45.1466" lon="5.59187">
        <ele>1032</ele>
        <time>2011-09-25T11:40:43Z</time>
      </trkpt>
      <trkpt lat="45.1468" lon="5.59197">
        <ele>1036</ele>
        <time>2011-09-25T11:40:50Z</time>
      </trkpt>
      <trkpt lat="45.14688" lon="5.59202">
        <ele>1036</ele>
        <time>2011-09-25T11:40:53Z</time>
      </trkpt>
      <trkpt lat="45.14695" lon="5.59209">
        <ele>1036</ele>
        <time>2011-09-25T11:40:56Z</time>
      </trkpt>
      <trkpt lat="45.14706" lon="5.59224">
        <ele>1035</ele>
        <time>2011-09-25T11:41:02Z</time>
      </trkpt>
      <trkpt lat="45.14711" lon="5.59231">
        <ele>1036</ele>
        <time>2011-09-25T11:41:05Z</time>
      </trkpt>
      <trkpt lat="45.14717" lon="5.59238">
        <ele>1036</ele>
        <time>2011-09-25T11:41:08Z</time>
      </trkpt>
      <trkpt lat="45.14725" lon="5.59243">
        <ele>1036</ele>
        <time>2011-09-25T11:41:11Z</time>
      </trkpt>
      <trkpt lat="45.14741" lon="5.59252">
        <ele>1035</ele>
        <time>2011-09-25T11:41:17Z</time>
      </trkpt>
      <trkpt lat="45.14762" lon="5.5927">
        <ele>1039</ele>
        <time>2011-09-25T11:41:26Z</time>
      </trkpt>
      <trkpt lat="45.14767" lon="5.59275">
        <ele>1040</ele>
        <time>2011-09-25T11:41:28Z</time>
      </trkpt>
      <trkpt lat="45.14787" lon="5.59296">
        <ele>1040</ele>
        <time>2011-09-25T11:41:38Z</time>
      </trkpt>
      <trkpt lat="45.14792" lon="5.59302">
        <ele>1041</ele>
        <time>2011-09-25T11:41:41Z</time>
      </trkpt>
      <trkpt lat="45.14806" lon="5.5931">
        <ele>1041</ele>
        <time>2011-09-25T11:41:45Z</time>
      </trkpt>
      <trkpt lat="45.14819" lon="5.59318">
        <ele>1042</ele>
        <time>2011-09-25T11:41:50Z</time>
      </trkpt>
      <trkpt lat="45.14826" lon="5.59325">
        <ele>1042</ele>
        <time>2011-09-25T11:41:53Z</time>
      </trkpt>
      <trkpt lat="45.14832" lon="5.59331">
        <ele>1043</ele>
        <time>2011-09-25T11:41:56Z</time>
      </trkpt>
      <trkpt lat="45.14843" lon="5.59348">
        <ele>1046</ele>
        <time>2011-09-25T11:42:02Z</time>
      </trkpt>
      <trkpt lat="45.14849" lon="5.59353">
        <ele>1047</ele>
        <time>2011-09-25T11:42:04Z</time>
      </trkpt>
      <trkpt lat="45.14851" lon="5.59364">
        <ele>1047</ele>
        <time>2011-09-25T11:42:07Z</time>
      </trkpt>
      <trkpt lat="45.14867" lon="5.59389">
        <ele>1048</ele>
        <time>2011-09-25T11:42:14Z</time>
      </trkpt>
      <trkpt lat="45.14872" lon="5.59399">
        <ele>1048</ele>
        <time>2011-09-25T11:42:17Z</time>
      </trkpt>
      <trkpt lat="45.14879" lon="5.59407">
        <ele>1049</ele>
        <time>2011-09-25T11:42:20Z</time>
      </trkpt>
      <trkpt lat="45.14891" lon="5.59425">
        <ele>1047</ele>
        <time>2011-09-25T11:42:26Z</time>
      </trkpt>
      <trkpt lat="45.14904" lon="5.59437">
        <ele>1048</ele>
        <time>2011-09-25T11:42:31Z</time>
      </trkpt>
      <trkpt lat="45.14917" lon="5.59448">
        <ele>1051</ele>
        <time>2011-09-25T11:42:36Z</time>
      </trkpt>
      <trkpt lat="45.14952" lon="5.59472">
        <ele>1050</ele>
        <time>2011-09-25T11:42:46Z</time>
      </trkpt>
      <trkpt lat="45.14968" lon="5.59475">
        <ele>1051</ele>
        <time>2011-09-25T11:42:50Z</time>
      </trkpt>
      <trkpt lat="45.14974" lon="5.59477">
        <ele>1051</ele>
        <time>2011-09-25T11:42:52Z</time>
      </trkpt>
      <trkpt lat="45.1499" lon="5.59476">
        <ele>1051</ele>
        <time>2011-09-25T11:42:57Z</time>
      </trkpt>
      <trkpt lat="45.15003" lon="5.59471">
        <ele>1055</ele>
        <time>2011-09-25T11:43:02Z</time>
      </trkpt>
      <trkpt lat="45.1501" lon="5.59469">
        <ele>1055</ele>
        <time>2011-09-25T11:43:05Z</time>
      </trkpt>
      <trkpt lat="45.15017" lon="5.59468">
        <ele>1056</ele>
        <time>2011-09-25T11:43:08Z</time>
      </trkpt>
      <trkpt lat="45.15032" lon="5.59463">
        <ele>1056</ele>
        <time>2011-09-25T11:43:14Z</time>
      </trkpt>
      <trkpt lat="45.1504" lon="5.59461">
        <ele>1057</ele>
        <time>2011-09-25T11:43:17Z</time>
      </trkpt>
      <trkpt lat="45.15062" lon="5.59455">
        <ele>1058</ele>
        <time>2011-09-25T11:43:26Z</time>
      </trkpt>
      <trkpt lat="45.15077" lon="5.59459">
        <ele>1058</ele>
        <time>2011-09-25T11:43:32Z</time>
      </trkpt>
      <trkpt lat="45.15091" lon="5.59471">
        <ele>1064</ele>
        <time>2011-09-25T11:43:38Z</time>
      </trkpt>
      <trkpt lat="45.15097" lon="5.59477">
        <ele>1064</ele>
        <time>2011-09-25T11:43:41Z</time>
      </trkpt>
      <trkpt lat="45.15102" lon="5.59485">
        <ele>1064</ele>
        <time>2011-09-25T11:43:44Z</time>
      </trkpt>
      <trkpt lat="45.15113" lon="5.59496">
        <ele>1065</ele>
        <time>2011-09-25T11:43:50Z</time>
      </trkpt>
      <trkpt lat="45.15127" lon="5.59508">
        <ele>1064</ele>
        <time>2011-09-25T11:43:56Z</time>
      </trkpt>
      <trkpt lat="45.15133" lon="5.59514">
        <ele>1065</ele>
        <time>2011-09-25T11:44:00Z</time>
      </trkpt>
      <trkpt lat="45.15141" lon="5.59517">
        <ele>1065</ele>
        <time>2011-09-25T11:44:04Z</time>
      </trkpt>
      <trkpt lat="45.15147" lon="5.59522">
        <ele>1066</ele>
        <time>2011-09-25T11:44:07Z</time>
      </trkpt>
      <trkpt lat="45.15162" lon="5.59528">
        <ele>1066</ele>
        <time>2011-09-25T11:44:13Z</time>
      </trkpt>
      <trkpt lat="45.1517" lon="5.59531">
        <ele>1072</ele>
        <time>2011-09-25T11:44:17Z</time>
      </trkpt>
      <trkpt lat="45.15177" lon="5.59535">
        <ele>1073</ele>
        <time>2011-09-25T11:44:20Z</time>
      </trkpt>
      <trkpt lat="45.15191" lon="5.59542">
        <ele>1073</ele>
        <time>2011-09-25T11:44:26Z</time>
      </trkpt>
      <trkpt lat="45.15206" lon="5.59546">
        <ele>1074</ele>
        <time>2011-09-25T11:44:33Z</time>
      </trkpt>
      <trkpt lat="45.15218" lon="5.59547">
        <ele>1075</ele>
        <time>2011-09-25T11:44:38Z</time>
      </trkpt>
      <trkpt lat="45.15235" lon="5.59546">
        <ele>1076</ele>
        <time>2011-09-25T11:44:46Z</time>
      </trkpt>
      <trkpt lat="45.15244" lon="5.5955">
        <ele>1076</ele>
        <time>2011-09-25T11:44:49Z</time>
      </trkpt>
      <trkpt lat="45.1525" lon="5.59554">
        <ele>1086</ele>
        <time>2011-09-25T11:44:52Z</time>
      </trkpt>
      <trkpt lat="45.15255" lon="5.59572">
        <ele>1082</ele>
        <time>2011-09-25T11:44:58Z</time>
      </trkpt>
      <trkpt lat="45.15257" lon="5.59582">
        <ele>1080</ele>
        <time>2011-09-25T11:45:01Z</time>
      </trkpt>
      <trkpt lat="45.15259" lon="5.59593">
        <ele>1079</ele>
        <time>2011-09-25T11:45:04Z</time>
      </trkpt>
      <trkpt lat="45.15266" lon="5.5961">
        <ele>1080</ele>
        <time>2011-09-25T11:45:10Z</time>
      </trkpt>
      <trkpt lat="45.15272" lon="5.59616">
        <ele>1081</ele>
        <time>2011-09-25T11:45:13Z</time>
      </trkpt>
      <trkpt lat="45.15277" lon="5.59623">
        <ele>1081</ele>
        <time>2011-09-25T11:45:16Z</time>
      </trkpt>
      <trkpt lat="45.15289" lon="5.59635">
        <ele>1082</ele>
        <time>2011-09-25T11:45:22Z</time>
      </trkpt>
      <trkpt lat="45.15303" lon="5.59643">
        <ele>1083</ele>
        <time>2011-09-25T11:45:28Z</time>
      </trkpt>
      <trkpt lat="45.15316" lon="5.59652">
        <ele>1084</ele>
        <time>2011-09-25T11:45:34Z</time>
      </trkpt>
      <trkpt lat="45.15323" lon="5.59656">
        <ele>1085</ele>
        <time>2011-09-25T11:45:37Z</time>
      </trkpt>
      <trkpt lat="45.1533" lon="5.59659">
        <ele>1085</ele>
        <time>2011-09-25T11:45:40Z</time>
      </trkpt>
      <trkpt lat="45.15352" lon="5.59668">
        <ele>1088</ele>
        <time>2011-09-25T11:45:50Z</time>
      </trkpt>
      <trkpt lat="45.1536" lon="5.59672">
        <ele>1089</ele>
        <time>2011-09-25T11:45:53Z</time>
      </trkpt>
      <trkpt lat="45.15376" lon="5.59679">
        <ele>1091</ele>
        <time>2011-09-25T11:46:00Z</time>
      </trkpt>
      <trkpt lat="45.1539" lon="5.59682">
        <ele>1093</ele>
        <time>2011-09-25T11:46:07Z</time>
      </trkpt>
      <trkpt lat="45.15403" lon="5.59691">
        <ele>1093</ele>
        <time>2011-09-25T11:46:14Z</time>
      </trkpt>
      <trkpt lat="45.15411" lon="5.59695">
        <ele>1093</ele>
        <time>2011-09-25T11:46:18Z</time>
      </trkpt>
      <trkpt lat="45.15417" lon="5.59695">
        <ele>1103</ele>
        <time>2011-09-25T11:46:21Z</time>
      </trkpt>
      <trkpt lat="45.15438" lon="5.59684">
        <ele>1104</ele>
        <time>2011-09-25T11:46:30Z</time>
      </trkpt>
      <trkpt lat="45.15449" lon="5.59679">
        <ele>1105</ele>
        <time>2011-09-25T11:46:33Z</time>
      </trkpt>
      <trkpt lat="45.15466" lon="5.59672">
        <ele>1107</ele>
        <time>2011-09-25T11:46:37Z</time>
      </trkpt>
      <trkpt lat="45.15476" lon="5.59668">
        <ele>1109</ele>
        <time>2011-09-25T11:46:39Z</time>
      </trkpt>
      <trkpt lat="45.15487" lon="5.59693">
        <ele>1108</ele>
        <time>2011-09-25T11:46:45Z</time>
      </trkpt>
      <trkpt lat="45.15486" lon="5.59704">
        <ele>1107</ele>
        <time>2011-09-25T11:46:48Z</time>
      </trkpt>
      <trkpt lat="45.15483" lon="5.59727">
        <ele>1107</ele>
        <time>2011-09-25T11:46:54Z</time>
      </trkpt>
      <trkpt lat="45.15482" lon="5.59737">
        <ele>1107</ele>
        <time>2011-09-25T11:46:57Z</time>
      </trkpt>
      <trkpt lat="45.15482" lon="5.59749">
        <ele>1107</ele>
        <time>2011-09-25T11:47:00Z</time>
      </trkpt>
      <trkpt lat="45.15483" lon="5.59759">
        <ele>1105</ele>
        <time>2011-09-25T11:47:03Z</time>
      </trkpt>
      <trkpt lat="45.15483" lon="5.59759">
        <ele>1105</ele>
        <time>2011-09-25T11:47:15Z</time>
      </trkpt>
      <trkpt lat="45.15483" lon="5.59759">
        <ele>1105</ele>
        <time>2011-09-25T11:47:16Z</time>
      </trkpt>
      <trkpt lat="45.15506" lon="5.59796">
        <ele>1115</ele>
        <time>2011-09-25T11:47:19Z</time>
      </trkpt>
      <trkpt lat="45.15513" lon="5.59798">
        <ele>1115</ele>
        <time>2011-09-25T11:47:23Z</time>
      </trkpt>
      <trkpt lat="45.15517" lon="5.59806">
        <ele>1115</ele>
        <time>2011-09-25T11:47:26Z</time>
      </trkpt>
      <trkpt lat="45.1553" lon="5.59815">
        <ele>1116</ele>
        <time>2011-09-25T11:47:32Z</time>
      </trkpt>
      <trkpt lat="45.15537" lon="5.59799">
        <ele>1117</ele>
        <time>2011-09-25T11:47:44Z</time>
      </trkpt>
      <trkpt lat="45.15536" lon="5.59789">
        <ele>1117</ele>
        <time>2011-09-25T11:47:47Z</time>
      </trkpt>
      <trkpt lat="45.1553" lon="5.59774">
        <ele>1117</ele>
        <time>2011-09-25T11:47:52Z</time>
      </trkpt>
      <trkpt lat="45.15528" lon="5.59764">
        <ele>1116</ele>
        <time>2011-09-25T11:47:55Z</time>
      </trkpt>
      <trkpt lat="45.15525" lon="5.59754">
        <ele>1116</ele>
        <time>2011-09-25T11:47:58Z</time>
      </trkpt>
      <trkpt lat="45.15526" lon="5.59736">
        <ele>1119</ele>
        <time>2011-09-25T11:48:04Z</time>
      </trkpt>
      <trkpt lat="45.15525" lon="5.59726">
        <ele>1119</ele>
        <time>2011-09-25T11:48:07Z</time>
      </trkpt>
      <trkpt lat="45.15527" lon="5.59715">
        <ele>1120</ele>
        <time>2011-09-25T11:48:11Z</time>
      </trkpt>
      <trkpt lat="45.15531" lon="5.59707">
        <ele>1121</ele>
        <time>2011-09-25T11:48:15Z</time>
      </trkpt>
      <trkpt lat="45.15537" lon="5.5971">
        <ele>1121</ele>
        <time>2011-09-25T11:48:19Z</time>
      </trkpt>
      <trkpt lat="45.15543" lon="5.59728">
        <ele>1121</ele>
        <time>2011-09-25T11:48:26Z</time>
      </trkpt>
      <trkpt lat="45.15552" lon="5.59744">
        <ele>1123</ele>
        <time>2011-09-25T11:48:32Z</time>
      </trkpt>
      <trkpt lat="45.15557" lon="5.59752">
        <ele>1122</ele>
        <time>2011-09-25T11:48:36Z</time>
      </trkpt>
      <trkpt lat="45.15563" lon="5.59756">
        <ele>1123</ele>
        <time>2011-09-25T11:48:39Z</time>
      </trkpt>
      <trkpt lat="45.15576" lon="5.59763">
        <ele>1125</ele>
        <time>2011-09-25T11:48:46Z</time>
      </trkpt>
      <trkpt lat="45.15596" lon="5.59771">
        <ele>1133</ele>
        <time>2011-09-25T11:48:55Z</time>
      </trkpt>
      <trkpt lat="45.15605" lon="5.5977">
        <ele>1134</ele>
        <time>2011-09-25T11:48:57Z</time>
      </trkpt>
      <trkpt lat="45.15614" lon="5.59771">
        <ele>1134</ele>
        <time>2011-09-25T11:49:02Z</time>
      </trkpt>
      <trkpt lat="45.15621" lon="5.59765">
        <ele>1135</ele>
        <time>2011-09-25T11:49:06Z</time>
      </trkpt>
      <trkpt lat="45.15627" lon="5.59757">
        <ele>1136</ele>
        <time>2011-09-25T11:49:10Z</time>
      </trkpt>
      <trkpt lat="45.1564" lon="5.59748">
        <ele>1141</ele>
        <time>2011-09-25T11:49:16Z</time>
      </trkpt>
      <trkpt lat="45.15646" lon="5.59744">
        <ele>1142</ele>
        <time>2011-09-25T11:49:21Z</time>
      </trkpt>
      <trkpt lat="45.15652" lon="5.59741">
        <ele>1142</ele>
        <time>2011-09-25T11:49:26Z</time>
      </trkpt>
      <trkpt lat="45.15661" lon="5.59742">
        <ele>1143</ele>
        <time>2011-09-25T11:49:30Z</time>
      </trkpt>
      <trkpt lat="45.15675" lon="5.59744">
        <ele>1149</ele>
        <time>2011-09-25T11:49:36Z</time>
      </trkpt>
      <trkpt lat="45.15681" lon="5.5975">
        <ele>1148</ele>
        <time>2011-09-25T11:49:40Z</time>
      </trkpt>
      <trkpt lat="45.15702" lon="5.59759">
        <ele>1152</ele>
        <time>2011-09-25T11:49:50Z</time>
      </trkpt>
      <trkpt lat="45.15715" lon="5.5977">
        <ele>1153</ele>
        <time>2011-09-25T11:49:56Z</time>
      </trkpt>
      <trkpt lat="45.1572" lon="5.59778">
        <ele>1153</ele>
        <time>2011-09-25T11:50:00Z</time>
      </trkpt>
      <trkpt lat="45.15718" lon="5.59787">
        <ele>1153</ele>
        <time>2011-09-25T11:50:05Z</time>
      </trkpt>
      <trkpt lat="45.15702" lon="5.59787">
        <ele>1151</ele>
        <time>2011-09-25T11:50:12Z</time>
      </trkpt>
      <trkpt lat="45.15686" lon="5.59795">
        <ele>1150</ele>
        <time>2011-09-25T11:50:18Z</time>
      </trkpt>
      <trkpt lat="45.15684" lon="5.59816">
        <ele>1148</ele>
        <time>2011-09-25T11:50:24Z</time>
      </trkpt>
      <trkpt lat="45.15688" lon="5.59825">
        <ele>1148</ele>
        <time>2011-09-25T11:50:27Z</time>
      </trkpt>
      <trkpt lat="45.15693" lon="5.59833">
        <ele>1149</ele>
        <time>2011-09-25T11:50:31Z</time>
      </trkpt>
      <trkpt lat="45.15705" lon="5.59843">
        <ele>1149</ele>
        <time>2011-09-25T11:50:38Z</time>
      </trkpt>
      <trkpt lat="45.1571" lon="5.59848">
        <ele>1149</ele>
        <time>2011-09-25T11:50:41Z</time>
      </trkpt>
      <trkpt lat="45.15725" lon="5.5987">
        <ele>1150</ele>
        <time>2011-09-25T11:50:52Z</time>
      </trkpt>
      <trkpt lat="45.15732" lon="5.59876">
        <ele>1150</ele>
        <time>2011-09-25T11:50:56Z</time>
      </trkpt>
      <trkpt lat="45.15736" lon="5.59883">
        <ele>1150</ele>
        <time>2011-09-25T11:50:59Z</time>
      </trkpt>
      <trkpt lat="45.15743" lon="5.59889">
        <ele>1151</ele>
        <time>2011-09-25T11:51:03Z</time>
      </trkpt>
      <trkpt lat="45.15757" lon="5.59894">
        <ele>1160</ele>
        <time>2011-09-25T11:51:10Z</time>
      </trkpt>
      <trkpt lat="45.15768" lon="5.59903">
        <ele>1160</ele>
        <time>2011-09-25T11:51:18Z</time>
      </trkpt>
      <trkpt lat="45.15786" lon="5.59914">
        <ele>1162</ele>
        <time>2011-09-25T11:51:27Z</time>
      </trkpt>
      <trkpt lat="45.15797" lon="5.59916">
        <ele>1163</ele>
        <time>2011-09-25T11:51:32Z</time>
      </trkpt>
      <trkpt lat="45.15803" lon="5.59917">
        <ele>1163</ele>
        <time>2011-09-25T11:51:35Z</time>
      </trkpt>
      <trkpt lat="45.1581" lon="5.59919">
        <ele>1158</ele>
        <time>2011-09-25T11:51:39Z</time>
      </trkpt>
      <trkpt lat="45.15822" lon="5.59927">
        <ele>1160</ele>
        <time>2011-09-25T11:51:46Z</time>
      </trkpt>
      <trkpt lat="45.15835" lon="5.59935">
        <ele>1166</ele>
        <time>2011-09-25T11:51:52Z</time>
      </trkpt>
      <trkpt lat="45.15841" lon="5.59941">
        <ele>1167</ele>
        <time>2011-09-25T11:51:56Z</time>
      </trkpt>
      <trkpt lat="45.15848" lon="5.59943">
        <ele>1167</ele>
        <time>2011-09-25T11:52:00Z</time>
      </trkpt>
      <trkpt lat="45.15855" lon="5.59944">
        <ele>1167</ele>
        <time>2011-09-25T11:52:03Z</time>
      </trkpt>
      <trkpt lat="45.15862" lon="5.59946">
        <ele>1168</ele>
        <time>2011-09-25T11:52:07Z</time>
      </trkpt>
      <trkpt lat="45.15876" lon="5.59947">
        <ele>1169</ele>
        <time>2011-09-25T11:52:14Z</time>
      </trkpt>
      <trkpt lat="45.15883" lon="5.59948">
        <ele>1170</ele>
        <time>2011-09-25T11:52:17Z</time>
      </trkpt>
      <trkpt lat="45.15903" lon="5.59961">
        <ele>1171</ele>
        <time>2011-09-25T11:52:29Z</time>
      </trkpt>
      <trkpt lat="45.15911" lon="5.59961">
        <ele>1171</ele>
        <time>2011-09-25T11:52:32Z</time>
      </trkpt>
      <trkpt lat="45.15917" lon="5.59962">
        <ele>1179</ele>
        <time>2011-09-25T11:52:35Z</time>
      </trkpt>
      <trkpt lat="45.15925" lon="5.59964">
        <ele>1179</ele>
        <time>2011-09-25T11:52:40Z</time>
      </trkpt>
      <trkpt lat="45.15933" lon="5.59965">
        <ele>1179</ele>
        <time>2011-09-25T11:52:45Z</time>
      </trkpt>
      <trkpt lat="45.15941" lon="5.59966">
        <ele>1180</ele>
        <time>2011-09-25T11:52:50Z</time>
      </trkpt>
      <trkpt lat="45.15948" lon="5.59967">
        <ele>1180</ele>
        <time>2011-09-25T11:52:54Z</time>
      </trkpt>
      <trkpt lat="45.15955" lon="5.59969">
        <ele>1180</ele>
        <time>2011-09-25T11:52:59Z</time>
      </trkpt>
      <trkpt lat="45.15969" lon="5.59973">
        <ele>1181</ele>
        <time>2011-09-25T11:53:06Z</time>
      </trkpt>
      <trkpt lat="45.15975" lon="5.59977">
        <ele>1181</ele>
        <time>2011-09-25T11:53:10Z</time>
      </trkpt>
      <trkpt lat="45.15983" lon="5.59979">
        <ele>1181</ele>
        <time>2011-09-25T11:53:14Z</time>
      </trkpt>
      <trkpt lat="45.15991" lon="5.59983">
        <ele>1181</ele>
        <time>2011-09-25T11:53:18Z</time>
      </trkpt>
      <trkpt lat="45.15995" lon="5.59989">
        <ele>1180</ele>
        <time>2011-09-25T11:53:21Z</time>
      </trkpt>
      <trkpt lat="45.16" lon="5.59998">
        <ele>1181</ele>
        <time>2011-09-25T11:53:26Z</time>
      </trkpt>
      <trkpt lat="45.16007" lon="5.60005">
        <ele>1180</ele>
        <time>2011-09-25T11:53:29Z</time>
      </trkpt>
      <trkpt lat="45.1602" lon="5.60014">
        <ele>1181</ele>
        <time>2011-09-25T11:53:36Z</time>
      </trkpt>
      <trkpt lat="45.16027" lon="5.60018">
        <ele>1181</ele>
        <time>2011-09-25T11:53:40Z</time>
      </trkpt>
      <trkpt lat="45.16034" lon="5.6002">
        <ele>1181</ele>
        <time>2011-09-25T11:53:44Z</time>
      </trkpt>
      <trkpt lat="45.16042" lon="5.60017">
        <ele>1181</ele>
        <time>2011-09-25T11:53:49Z</time>
      </trkpt>
      <trkpt lat="45.16053" lon="5.60006">
        <ele>1182</ele>
        <time>2011-09-25T11:53:56Z</time>
      </trkpt>
      <trkpt lat="45.16059" lon="5.59999">
        <ele>1187</ele>
        <time>2011-09-25T11:53:59Z</time>
      </trkpt>
      <trkpt lat="45.16064" lon="5.59993">
        <ele>1188</ele>
        <time>2011-09-25T11:54:03Z</time>
      </trkpt>
      <trkpt lat="45.16071" lon="5.59986">
        <ele>1188</ele>
        <time>2011-09-25T11:54:07Z</time>
      </trkpt>
      <trkpt lat="45.16081" lon="5.59973">
        <ele>1189</ele>
        <time>2011-09-25T11:54:14Z</time>
      </trkpt>
      <trkpt lat="45.16086" lon="5.59964">
        <ele>1193</ele>
        <time>2011-09-25T11:54:18Z</time>
      </trkpt>
      <trkpt lat="45.16088" lon="5.59955">
        <ele>1194</ele>
        <time>2011-09-25T11:54:22Z</time>
      </trkpt>
      <trkpt lat="45.16091" lon="5.59946">
        <ele>1194</ele>
        <time>2011-09-25T11:54:26Z</time>
      </trkpt>
      <trkpt lat="45.16095" lon="5.59927">
        <ele>1196</ele>
        <time>2011-09-25T11:54:34Z</time>
      </trkpt>
      <trkpt lat="45.16099" lon="5.59917">
        <ele>1196</ele>
        <time>2011-09-25T11:54:38Z</time>
      </trkpt>
      <trkpt lat="45.16111" lon="5.59907">
        <ele>1203</ele>
        <time>2011-09-25T11:54:46Z</time>
      </trkpt>
      <trkpt lat="45.16127" lon="5.59907">
        <ele>1204</ele>
        <time>2011-09-25T11:54:56Z</time>
      </trkpt>
      <trkpt lat="45.16134" lon="5.59901">
        <ele>1205</ele>
        <time>2011-09-25T11:55:00Z</time>
      </trkpt>
      <trkpt lat="45.1614" lon="5.59898">
        <ele>1205</ele>
        <time>2011-09-25T11:55:03Z</time>
      </trkpt>
      <trkpt lat="45.16146" lon="5.59893">
        <ele>1205</ele>
        <time>2011-09-25T11:55:07Z</time>
      </trkpt>
      <trkpt lat="45.16153" lon="5.59891">
        <ele>1205</ele>
        <time>2011-09-25T11:55:11Z</time>
      </trkpt>
      <trkpt lat="45.16166" lon="5.59884">
        <ele>1206</ele>
        <time>2011-09-25T11:55:18Z</time>
      </trkpt>
      <trkpt lat="45.16168" lon="5.59875">
        <ele>1209</ele>
        <time>2011-09-25T11:55:22Z</time>
      </trkpt>
      <trkpt lat="45.16171" lon="5.59866">
        <ele>1210</ele>
        <time>2011-09-25T11:55:25Z</time>
      </trkpt>
      <trkpt lat="45.16172" lon="5.59857">
        <ele>1211</ele>
        <time>2011-09-25T11:55:29Z</time>
      </trkpt>
      <trkpt lat="45.16169" lon="5.59847">
        <ele>1212</ele>
        <time>2011-09-25T11:55:33Z</time>
      </trkpt>
      <trkpt lat="45.16165" lon="5.59837">
        <ele>1213</ele>
        <time>2011-09-25T11:55:37Z</time>
      </trkpt>
      <trkpt lat="45.16165" lon="5.59818">
        <ele>1216</ele>
        <time>2011-09-25T11:55:44Z</time>
      </trkpt>
      <trkpt lat="45.16165" lon="5.59809">
        <ele>1217</ele>
        <time>2011-09-25T11:55:48Z</time>
      </trkpt>
      <trkpt lat="45.1617" lon="5.59792">
        <ele>1221</ele>
        <time>2011-09-25T11:55:55Z</time>
      </trkpt>
      <trkpt lat="45.16173" lon="5.59784">
        <ele>1222</ele>
        <time>2011-09-25T11:55:59Z</time>
      </trkpt>
      <trkpt lat="45.16174" lon="5.59774">
        <ele>1223</ele>
        <time>2011-09-25T11:56:03Z</time>
      </trkpt>
      <trkpt lat="45.1618" lon="5.59767">
        <ele>1224</ele>
        <time>2011-09-25T11:56:08Z</time>
      </trkpt>
      <trkpt lat="45.16187" lon="5.59765">
        <ele>1224</ele>
        <time>2011-09-25T11:56:13Z</time>
      </trkpt>
      <trkpt lat="45.16194" lon="5.59766">
        <ele>1224</ele>
        <time>2011-09-25T11:56:18Z</time>
      </trkpt>
      <trkpt lat="45.16202" lon="5.59765">
        <ele>1224</ele>
        <time>2011-09-25T11:56:21Z</time>
      </trkpt>
      <trkpt lat="45.16217" lon="5.59761">
        <ele>1225</ele>
        <time>2011-09-25T11:56:29Z</time>
      </trkpt>
      <trkpt lat="45.16223" lon="5.59757">
        <ele>1225</ele>
        <time>2011-09-25T11:56:33Z</time>
      </trkpt>
      <trkpt lat="45.16234" lon="5.59745">
        <ele>1232</ele>
        <time>2011-09-25T11:56:40Z</time>
      </trkpt>
      <trkpt lat="45.16246" lon="5.59735">
        <ele>1233</ele>
        <time>2011-09-25T11:56:46Z</time>
      </trkpt>
      <trkpt lat="45.16257" lon="5.59723">
        <ele>1240</ele>
        <time>2011-09-25T11:56:54Z</time>
      </trkpt>
      <trkpt lat="45.16262" lon="5.59715">
        <ele>1242</ele>
        <time>2011-09-25T11:56:58Z</time>
      </trkpt>
      <trkpt lat="45.16268" lon="5.5971">
        <ele>1243</ele>
        <time>2011-09-25T11:57:02Z</time>
      </trkpt>
      <trkpt lat="45.16276" lon="5.59704">
        <ele>1244</ele>
        <time>2011-09-25T11:57:07Z</time>
      </trkpt>
      <trkpt lat="45.1629" lon="5.59703">
        <ele>1245</ele>
        <time>2011-09-25T11:57:14Z</time>
      </trkpt>
      <trkpt lat="45.16296" lon="5.59709">
        <ele>1245</ele>
        <time>2011-09-25T11:57:18Z</time>
      </trkpt>
      <trkpt lat="45.163" lon="5.59716">
        <ele>1244</ele>
        <time>2011-09-25T11:57:22Z</time>
      </trkpt>
      <trkpt lat="45.16306" lon="5.59723">
        <ele>1244</ele>
        <time>2011-09-25T11:57:26Z</time>
      </trkpt>
      <trkpt lat="45.16312" lon="5.59727">
        <ele>1244</ele>
        <time>2011-09-25T11:57:30Z</time>
      </trkpt>
      <trkpt lat="45.16326" lon="5.59732">
        <ele>1244</ele>
        <time>2011-09-25T11:57:38Z</time>
      </trkpt>
      <trkpt lat="45.16334" lon="5.59735">
        <ele>1249</ele>
        <time>2011-09-25T11:57:43Z</time>
      </trkpt>
      <trkpt lat="45.1634" lon="5.59737">
        <ele>1249</ele>
        <time>2011-09-25T11:57:47Z</time>
      </trkpt>
      <trkpt lat="45.16348" lon="5.59738">
        <ele>1250</ele>
        <time>2011-09-25T11:57:52Z</time>
      </trkpt>
      <trkpt lat="45.16355" lon="5.5974">
        <ele>1251</ele>
        <time>2011-09-25T11:57:56Z</time>
      </trkpt>
      <trkpt lat="45.16362" lon="5.59741">
        <ele>1252</ele>
        <time>2011-09-25T11:58:01Z</time>
      </trkpt>
      <trkpt lat="45.16374" lon="5.59742">
        <ele>1253</ele>
        <time>2011-09-25T11:58:09Z</time>
      </trkpt>
      <trkpt lat="45.1638" lon="5.59738">
        <ele>1254</ele>
        <time>2011-09-25T11:58:14Z</time>
      </trkpt>
      <trkpt lat="45.16385" lon="5.59732">
        <ele>1254</ele>
        <time>2011-09-25T11:58:18Z</time>
      </trkpt>
      <trkpt lat="45.16389" lon="5.59714">
        <ele>1256</ele>
        <time>2011-09-25T11:58:26Z</time>
      </trkpt>
      <trkpt lat="45.16389" lon="5.59714">
        <ele>1256</ele>
        <time>2011-09-25T11:58:38Z</time>
      </trkpt>
      <trkpt lat="45.16389" lon="5.59714">
        <ele>1256</ele>
        <time>2011-09-25T12:00:24Z</time>
      </trkpt>
      <trkpt lat="45.16389" lon="5.59714">
        <ele>1256</ele>
        <time>2011-09-25T12:00:36Z</time>
      </trkpt>
      <trkpt lat="45.16389" lon="5.59714">
        <ele>1256</ele>
        <time>2011-09-25T12:00:54Z</time>
      </trkpt>
      <trkpt lat="45.16367" lon="5.5969">
        <ele>1257</ele>
        <time>2011-09-25T12:00:58Z</time>
      </trkpt>
      <trkpt lat="45.16363" lon="5.59683">
        <ele>1257</ele>
        <time>2011-09-25T12:01:03Z</time>
      </trkpt>
      <trkpt lat="45.16358" lon="5.59674">
        <ele>1258</ele>
        <time>2011-09-25T12:01:08Z</time>
      </trkpt>
      <trkpt lat="45.16354" lon="5.59665">
        <ele>1266</ele>
        <time>2011-09-25T12:01:14Z</time>
      </trkpt>
      <trkpt lat="45.1635" lon="5.59656">
        <ele>1266</ele>
        <time>2011-09-25T12:01:17Z</time>
      </trkpt>
      <trkpt lat="45.16345" lon="5.59648">
        <ele>1267</ele>
        <time>2011-09-25T12:01:22Z</time>
      </trkpt>
      <trkpt lat="45.16341" lon="5.59641">
        <ele>1268</ele>
        <time>2011-09-25T12:01:26Z</time>
      </trkpt>
      <trkpt lat="45.16338" lon="5.59632">
        <ele>1270</ele>
        <time>2011-09-25T12:01:30Z</time>
      </trkpt>
      <trkpt lat="45.16333" lon="5.59625">
        <ele>1265</ele>
        <time>2011-09-25T12:01:34Z</time>
      </trkpt>
      <trkpt lat="45.16328" lon="5.59619">
        <ele>1266</ele>
        <time>2011-09-25T12:01:38Z</time>
      </trkpt>
      <trkpt lat="45.16323" lon="5.59613">
        <ele>1267</ele>
        <time>2011-09-25T12:01:43Z</time>
      </trkpt>
      <trkpt lat="45.16317" lon="5.59606">
        <ele>1268</ele>
        <time>2011-09-25T12:01:48Z</time>
      </trkpt>
      <trkpt lat="45.16313" lon="5.59599">
        <ele>1269</ele>
        <time>2011-09-25T12:01:52Z</time>
      </trkpt>
      <trkpt lat="45.16309" lon="5.59591">
        <ele>1269</ele>
        <time>2011-09-25T12:01:56Z</time>
      </trkpt>
      <trkpt lat="45.16304" lon="5.59584">
        <ele>1269</ele>
        <time>2011-09-25T12:02:00Z</time>
      </trkpt>
      <trkpt lat="45.16298" lon="5.59578">
        <ele>1284</ele>
        <time>2011-09-25T12:02:04Z</time>
      </trkpt>
      <trkpt lat="45.16293" lon="5.59571">
        <ele>1284</ele>
        <time>2011-09-25T12:02:08Z</time>
      </trkpt>
      <trkpt lat="45.16288" lon="5.59564">
        <ele>1285</ele>
        <time>2011-09-25T12:02:14Z</time>
      </trkpt>
      <trkpt lat="45.16282" lon="5.59558">
        <ele>1285</ele>
        <time>2011-09-25T12:02:17Z</time>
      </trkpt>
      <trkpt lat="45.16276" lon="5.59553">
        <ele>1285</ele>
        <time>2011-09-25T12:02:21Z</time>
      </trkpt>
      <trkpt lat="45.16269" lon="5.59552">
        <ele>1285</ele>
        <time>2011-09-25T12:02:26Z</time>
      </trkpt>
      <trkpt lat="45.16257" lon="5.59543">
        <ele>1286</ele>
        <time>2011-09-25T12:02:35Z</time>
      </trkpt>
      <trkpt lat="45.1625" lon="5.59538">
        <ele>1287</ele>
        <time>2011-09-25T12:02:39Z</time>
      </trkpt>
      <trkpt lat="45.16243" lon="5.59534">
        <ele>1279</ele>
        <time>2011-09-25T12:02:44Z</time>
      </trkpt>
      <trkpt lat="45.16238" lon="5.59529">
        <ele>1280</ele>
        <time>2011-09-25T12:02:48Z</time>
      </trkpt>
      <trkpt lat="45.16232" lon="5.59522">
        <ele>1281</ele>
        <time>2011-09-25T12:02:53Z</time>
      </trkpt>
      <trkpt lat="45.16227" lon="5.59517">
        <ele>1281</ele>
        <time>2011-09-25T12:02:57Z</time>
      </trkpt>
      <trkpt lat="45.16221" lon="5.59511">
        <ele>1280</ele>
        <time>2011-09-25T12:03:01Z</time>
      </trkpt>
      <trkpt lat="45.16216" lon="5.59505">
        <ele>1280</ele>
        <time>2011-09-25T12:03:05Z</time>
      </trkpt>
      <trkpt lat="45.16211" lon="5.59498">
        <ele>1295</ele>
        <time>2011-09-25T12:03:09Z</time>
      </trkpt>
      <trkpt lat="45.16204" lon="5.5948">
        <ele>1296</ele>
        <time>2011-09-25T12:03:17Z</time>
      </trkpt>
      <trkpt lat="45.16201" lon="5.59471">
        <ele>1296</ele>
        <time>2011-09-25T12:03:21Z</time>
      </trkpt>
      <trkpt lat="45.16195" lon="5.59454">
        <ele>1298</ele>
        <time>2011-09-25T12:03:30Z</time>
      </trkpt>
      <trkpt lat="45.16189" lon="5.59445">
        <ele>1299</ele>
        <time>2011-09-25T12:03:35Z</time>
      </trkpt>
      <trkpt lat="45.16186" lon="5.59436">
        <ele>1300</ele>
        <time>2011-09-25T12:03:40Z</time>
      </trkpt>
      <trkpt lat="45.16178" lon="5.5942">
        <ele>1300</ele>
        <time>2011-09-25T12:03:50Z</time>
      </trkpt>
      <trkpt lat="45.16173" lon="5.59414">
        <ele>1307</ele>
        <time>2011-09-25T12:03:54Z</time>
      </trkpt>
      <trkpt lat="45.16163" lon="5.59399">
        <ele>1302</ele>
        <time>2011-09-25T12:04:04Z</time>
      </trkpt>
      <trkpt lat="45.16158" lon="5.59394">
        <ele>1303</ele>
        <time>2011-09-25T12:04:09Z</time>
      </trkpt>
      <trkpt lat="45.16151" lon="5.59379">
        <ele>1305</ele>
        <time>2011-09-25T12:04:17Z</time>
      </trkpt>
      <trkpt lat="45.16148" lon="5.5937">
        <ele>1307</ele>
        <time>2011-09-25T12:04:21Z</time>
      </trkpt>
      <trkpt lat="45.16145" lon="5.5936">
        <ele>1309</ele>
        <time>2011-09-25T12:04:25Z</time>
      </trkpt>
      <trkpt lat="45.16137" lon="5.59342">
        <ele>1310</ele>
        <time>2011-09-25T12:04:35Z</time>
      </trkpt>
      <trkpt lat="45.1613" lon="5.59326">
        <ele>1327</ele>
        <time>2011-09-25T12:04:43Z</time>
      </trkpt>
      <trkpt lat="45.16124" lon="5.5932">
        <ele>1326</ele>
        <time>2011-09-25T12:04:48Z</time>
      </trkpt>
      <trkpt lat="45.1612" lon="5.59312">
        <ele>1326</ele>
        <time>2011-09-25T12:04:53Z</time>
      </trkpt>
      <trkpt lat="45.16114" lon="5.59309">
        <ele>1326</ele>
        <time>2011-09-25T12:04:57Z</time>
      </trkpt>
      <trkpt lat="45.16102" lon="5.59299">
        <ele>1326</ele>
        <time>2011-09-25T12:05:06Z</time>
      </trkpt>
      <trkpt lat="45.16095" lon="5.59299">
        <ele>1325</ele>
        <time>2011-09-25T12:05:10Z</time>
      </trkpt>
      <trkpt lat="45.16089" lon="5.59295">
        <ele>1326</ele>
        <time>2011-09-25T12:05:13Z</time>
      </trkpt>
      <trkpt lat="45.16084" lon="5.59291">
        <ele>1326</ele>
        <time>2011-09-25T12:05:17Z</time>
      </trkpt>
      <trkpt lat="45.16077" lon="5.59285">
        <ele>1313</ele>
        <time>2011-09-25T12:05:23Z</time>
      </trkpt>
      <trkpt lat="45.16071" lon="5.5928">
        <ele>1314</ele>
        <time>2011-09-25T12:05:28Z</time>
      </trkpt>
      <trkpt lat="45.16058" lon="5.59271">
        <ele>1314</ele>
        <time>2011-09-25T12:05:38Z</time>
      </trkpt>
      <trkpt lat="45.16051" lon="5.59266">
        <ele>1313</ele>
        <time>2011-09-25T12:05:43Z</time>
      </trkpt>
      <trkpt lat="45.16045" lon="5.59262">
        <ele>1312</ele>
        <time>2011-09-25T12:05:48Z</time>
      </trkpt>
      <trkpt lat="45.16039" lon="5.59256">
        <ele>1312</ele>
        <time>2011-09-25T12:05:54Z</time>
      </trkpt>
      <trkpt lat="45.16034" lon="5.59249">
        <ele>1327</ele>
        <time>2011-09-25T12:05:58Z</time>
      </trkpt>
      <trkpt lat="45.16029" lon="5.59241">
        <ele>1326</ele>
        <time>2011-09-25T12:06:02Z</time>
      </trkpt>
      <trkpt lat="45.16024" lon="5.59234">
        <ele>1326</ele>
        <time>2011-09-25T12:06:06Z</time>
      </trkpt>
      <trkpt lat="45.16018" lon="5.59229">
        <ele>1325</ele>
        <time>2011-09-25T12:06:10Z</time>
      </trkpt>
      <trkpt lat="45.16013" lon="5.59222">
        <ele>1327</ele>
        <time>2011-09-25T12:06:14Z</time>
      </trkpt>
      <trkpt lat="45.1601" lon="5.59213">
        <ele>1329</ele>
        <time>2011-09-25T12:06:18Z</time>
      </trkpt>
      <trkpt lat="45.16011" lon="5.59204">
        <ele>1331</ele>
        <time>2011-09-25T12:06:23Z</time>
      </trkpt>
      <trkpt lat="45.16019" lon="5.59205">
        <ele>1332</ele>
        <time>2011-09-25T12:06:29Z</time>
      </trkpt>
      <trkpt lat="45.16023" lon="5.59215">
        <ele>1330</ele>
        <time>2011-09-25T12:06:33Z</time>
      </trkpt>
      <trkpt lat="45.16027" lon="5.59223">
        <ele>1329</ele>
        <time>2011-09-25T12:06:37Z</time>
      </trkpt>
      <trkpt lat="45.16033" lon="5.59228">
        <ele>1330</ele>
        <time>2011-09-25T12:06:41Z</time>
      </trkpt>
      <trkpt lat="45.16046" lon="5.59231">
        <ele>1332</ele>
        <time>2011-09-25T12:06:49Z</time>
      </trkpt>
      <trkpt lat="45.16059" lon="5.59235">
        <ele>1333</ele>
        <time>2011-09-25T12:06:58Z</time>
      </trkpt>
      <trkpt lat="45.16074" lon="5.59236">
        <ele>1334</ele>
        <time>2011-09-25T12:07:07Z</time>
      </trkpt>
      <trkpt lat="45.16074" lon="5.59236">
        <ele>1334</ele>
        <time>2011-09-25T12:07:19Z</time>
      </trkpt>
      <trkpt lat="45.16074" lon="5.59236">
        <ele>1334</ele>
        <time>2011-09-25T12:07:20Z</time>
      </trkpt>
      <trkpt lat="45.16095" lon="5.59234">
        <ele>1349</ele>
        <time>2011-09-25T12:07:26Z</time>
      </trkpt>
      <trkpt lat="45.16111" lon="5.59236">
        <ele>1353</ele>
        <time>2011-09-25T12:07:35Z</time>
      </trkpt>
      <trkpt lat="45.16126" lon="5.59232">
        <ele>1357</ele>
        <time>2011-09-25T12:07:46Z</time>
      </trkpt>
      <trkpt lat="45.16133" lon="5.5923">
        <ele>1359</ele>
        <time>2011-09-25T12:07:51Z</time>
      </trkpt>
      <trkpt lat="45.1614" lon="5.59233">
        <ele>1359</ele>
        <time>2011-09-25T12:07:56Z</time>
      </trkpt>
      <trkpt lat="45.16152" lon="5.59233">
        <ele>1360</ele>
        <time>2011-09-25T12:08:06Z</time>
      </trkpt>
      <trkpt lat="45.16152" lon="5.59233">
        <ele>1360</ele>
        <time>2011-09-25T12:08:17Z</time>
      </trkpt>
      <trkpt lat="45.16152" lon="5.59233">
        <ele>1360</ele>
        <time>2011-09-25T12:08:18Z</time>
      </trkpt>
      <trkpt lat="45.16177" lon="5.59243">
        <ele>1367</ele>
        <time>2011-09-25T12:08:22Z</time>
      </trkpt>
      <trkpt lat="45.16182" lon="5.59249">
        <ele>1368</ele>
        <time>2011-09-25T12:08:27Z</time>
      </trkpt>
      <trkpt lat="45.16187" lon="5.59255">
        <ele>1357</ele>
        <time>2011-09-25T12:08:32Z</time>
      </trkpt>
      <trkpt lat="45.16192" lon="5.59263">
        <ele>1357</ele>
        <time>2011-09-25T12:08:37Z</time>
      </trkpt>
      <trkpt lat="45.16198" lon="5.59267">
        <ele>1357</ele>
        <time>2011-09-25T12:08:44Z</time>
      </trkpt>
      <trkpt lat="45.16205" lon="5.59268">
        <ele>1358</ele>
        <time>2011-09-25T12:08:50Z</time>
      </trkpt>
      <trkpt lat="45.16212" lon="5.5927">
        <ele>1359</ele>
        <time>2011-09-25T12:08:56Z</time>
      </trkpt>
      <trkpt lat="45.16218" lon="5.59274">
        <ele>1360</ele>
        <time>2011-09-25T12:09:01Z</time>
      </trkpt>
      <trkpt lat="45.16231" lon="5.59279">
        <ele>1362</ele>
        <time>2011-09-25T12:09:11Z</time>
      </trkpt>
      <trkpt lat="45.16237" lon="5.59284">
        <ele>1361</ele>
        <time>2011-09-25T12:09:17Z</time>
      </trkpt>
      <trkpt lat="45.16237" lon="5.59284">
        <ele>1361</ele>
        <time>2011-09-25T12:09:28Z</time>
      </trkpt>
      <trkpt lat="45.16237" lon="5.59284">
        <ele>1361</ele>
        <time>2011-09-25T12:09:29Z</time>
      </trkpt>
      <trkpt lat="45.16237" lon="5.59284">
        <ele>1361</ele>
        <time>2011-09-25T12:09:41Z</time>
      </trkpt>
      <trkpt lat="45.16237" lon="5.59284">
        <ele>1361</ele>
        <time>2011-09-25T12:09:45Z</time>
      </trkpt>
      <trkpt lat="45.16277" lon="5.59289">
        <ele>1376</ele>
        <time>2011-09-25T12:09:48Z</time>
      </trkpt>
      <trkpt lat="45.16277" lon="5.59289">
        <ele>1376</ele>
        <time>2011-09-25T12:10:00Z</time>
      </trkpt>
      <trkpt lat="45.16277" lon="5.59289">
        <ele>1376</ele>
        <time>2011-09-25T12:10:07Z</time>
      </trkpt>
      <trkpt lat="45.16301" lon="5.59305">
        <ele>1375</ele>
        <time>2011-09-25T12:10:11Z</time>
      </trkpt>
      <trkpt lat="45.16314" lon="5.59312">
        <ele>1375</ele>
        <time>2011-09-25T12:10:21Z</time>
      </trkpt>
      <trkpt lat="45.16321" lon="5.59312">
        <ele>1376</ele>
        <time>2011-09-25T12:10:26Z</time>
      </trkpt>
      <trkpt lat="45.16321" lon="5.59312">
        <ele>1376</ele>
        <time>2011-09-25T12:10:37Z</time>
      </trkpt>
      <trkpt lat="45.16321" lon="5.59312">
        <ele>1376</ele>
        <time>2011-09-25T12:10:38Z</time>
      </trkpt>
      <trkpt lat="45.16348" lon="5.59318">
        <ele>1382</ele>
        <time>2011-09-25T12:10:48Z</time>
      </trkpt>
      <trkpt lat="45.16355" lon="5.5932">
        <ele>1383</ele>
        <time>2011-09-25T12:10:54Z</time>
      </trkpt>
      <trkpt lat="45.16361" lon="5.59323">
        <ele>1384</ele>
        <time>2011-09-25T12:10:59Z</time>
      </trkpt>
      <trkpt lat="45.16368" lon="5.59323">
        <ele>1385</ele>
        <time>2011-09-25T12:11:04Z</time>
      </trkpt>
      <trkpt lat="45.16374" lon="5.59324">
        <ele>1385</ele>
        <time>2011-09-25T12:11:11Z</time>
      </trkpt>
      <trkpt lat="45.16381" lon="5.59324">
        <ele>1386</ele>
        <time>2011-09-25T12:11:16Z</time>
      </trkpt>
      <trkpt lat="45.16388" lon="5.59325">
        <ele>1386</ele>
        <time>2011-09-25T12:11:22Z</time>
      </trkpt>
      <trkpt lat="45.16395" lon="5.59323">
        <ele>1386</ele>
        <time>2011-09-25T12:11:27Z</time>
      </trkpt>
      <trkpt lat="45.16407" lon="5.59313">
        <ele>1387</ele>
        <time>2011-09-25T12:11:37Z</time>
      </trkpt>
      <trkpt lat="45.16416" lon="5.593">
        <ele>1389</ele>
        <time>2011-09-25T12:11:47Z</time>
      </trkpt>
      <trkpt lat="45.16427" lon="5.59287">
        <ele>1390</ele>
        <time>2011-09-25T12:11:57Z</time>
      </trkpt>
      <trkpt lat="45.16427" lon="5.59287">
        <ele>1390</ele>
        <time>2011-09-25T12:12:09Z</time>
      </trkpt>
      <trkpt lat="45.16427" lon="5.59287">
        <ele>1390</ele>
        <time>2011-09-25T12:12:09Z</time>
      </trkpt>
      <trkpt lat="45.16446" lon="5.59255">
        <ele>1393</ele>
        <time>2011-09-25T12:12:16Z</time>
      </trkpt>
      <trkpt lat="45.16454" lon="5.59252">
        <ele>1392</ele>
        <time>2011-09-25T12:12:21Z</time>
      </trkpt>
      <trkpt lat="45.16465" lon="5.59238">
        <ele>1403</ele>
        <time>2011-09-25T12:12:30Z</time>
      </trkpt>
      <trkpt lat="45.16468" lon="5.59216">
        <ele>1405</ele>
        <time>2011-09-25T12:12:38Z</time>
      </trkpt>
      <trkpt lat="45.1647" lon="5.59194">
        <ele>1407</ele>
        <time>2011-09-25T12:12:45Z</time>
      </trkpt>
      <trkpt lat="45.16472" lon="5.59182">
        <ele>1408</ele>
        <time>2011-09-25T12:12:49Z</time>
      </trkpt>
      <trkpt lat="45.16475" lon="5.59172">
        <ele>1408</ele>
        <time>2011-09-25T12:12:52Z</time>
      </trkpt>
      <trkpt lat="45.16477" lon="5.59163">
        <ele>1415</ele>
        <time>2011-09-25T12:12:55Z</time>
      </trkpt>
      <trkpt lat="45.16482" lon="5.59143">
        <ele>1416</ele>
        <time>2011-09-25T12:13:04Z</time>
      </trkpt>
      <trkpt lat="45.16486" lon="5.59136">
        <ele>1416</ele>
        <time>2011-09-25T12:13:08Z</time>
      </trkpt>
      <trkpt lat="45.16496" lon="5.59121">
        <ele>1416</ele>
        <time>2011-09-25T12:13:16Z</time>
      </trkpt>
      <trkpt lat="45.16495" lon="5.59111">
        <ele>1416</ele>
        <time>2011-09-25T12:13:20Z</time>
      </trkpt>
      <trkpt lat="45.16496" lon="5.59102">
        <ele>1415</ele>
        <time>2011-09-25T12:13:24Z</time>
      </trkpt>
      <trkpt lat="45.16491" lon="5.59082">
        <ele>1414</ele>
        <time>2011-09-25T12:13:31Z</time>
      </trkpt>
      <trkpt lat="45.16492" lon="5.59071">
        <ele>1416</ele>
        <time>2011-09-25T12:13:35Z</time>
      </trkpt>
      <trkpt lat="45.16489" lon="5.59063">
        <ele>1418</ele>
        <time>2011-09-25T12:13:39Z</time>
      </trkpt>
      <trkpt lat="45.16481" lon="5.59048">
        <ele>1420</ele>
        <time>2011-09-25T12:13:47Z</time>
      </trkpt>
      <trkpt lat="45.16481" lon="5.59048">
        <ele>1420</ele>
        <time>2011-09-25T12:13:59Z</time>
      </trkpt>
      <trkpt lat="45.16481" lon="5.59048">
        <ele>1420</ele>
        <time>2011-09-25T12:13:59Z</time>
      </trkpt>
      <trkpt lat="45.16465" lon="5.59018">
        <ele>1422</ele>
        <time>2011-09-25T12:14:03Z</time>
      </trkpt>
      <trkpt lat="45.16455" lon="5.59007">
        <ele>1425</ele>
        <time>2011-09-25T12:14:11Z</time>
      </trkpt>
      <trkpt lat="45.16451" lon="5.58998">
        <ele>1426</ele>
        <time>2011-09-25T12:14:15Z</time>
      </trkpt>
      <trkpt lat="45.16447" lon="5.5899">
        <ele>1426</ele>
        <time>2011-09-25T12:14:19Z</time>
      </trkpt>
      <trkpt lat="45.16441" lon="5.58983">
        <ele>1427</ele>
        <time>2011-09-25T12:14:25Z</time>
      </trkpt>
      <trkpt lat="45.16436" lon="5.58976">
        <ele>1428</ele>
        <time>2011-09-25T12:14:30Z</time>
      </trkpt>
      <trkpt lat="45.16433" lon="5.58968">
        <ele>1427</ele>
        <time>2011-09-25T12:14:35Z</time>
      </trkpt>
      <trkpt lat="45.16423" lon="5.58956">
        <ele>1427</ele>
        <time>2011-09-25T12:14:45Z</time>
      </trkpt>
      <trkpt lat="45.16419" lon="5.58949">
        <ele>1427</ele>
        <time>2011-09-25T12:14:49Z</time>
      </trkpt>
      <trkpt lat="45.16419" lon="5.58949">
        <ele>1427</ele>
        <time>2011-09-25T12:15:01Z</time>
      </trkpt>
      <trkpt lat="45.16419" lon="5.58949">
        <ele>1427</ele>
        <time>2011-09-25T12:15:03Z</time>
      </trkpt>
      <trkpt lat="45.16401" lon="5.5892">
        <ele>1436</ele>
        <time>2011-09-25T12:15:08Z</time>
      </trkpt>
      <trkpt lat="45.16396" lon="5.58912">
        <ele>1438</ele>
        <time>2011-09-25T12:15:13Z</time>
      </trkpt>
      <trkpt lat="45.16391" lon="5.58904">
        <ele>1440</ele>
        <time>2011-09-25T12:15:18Z</time>
      </trkpt>
      <trkpt lat="45.16382" lon="5.58888">
        <ele>1442</ele>
        <time>2011-09-25T12:15:28Z</time>
      </trkpt>
      <trkpt lat="45.16378" lon="5.5888">
        <ele>1443</ele>
        <time>2011-09-25T12:15:33Z</time>
      </trkpt>
      <trkpt lat="45.16377" lon="5.5887">
        <ele>1444</ele>
        <time>2011-09-25T12:15:37Z</time>
      </trkpt>
      <trkpt lat="45.16371" lon="5.58864">
        <ele>1444</ele>
        <time>2011-09-25T12:15:42Z</time>
      </trkpt>
      <trkpt lat="45.16366" lon="5.58857">
        <ele>1445</ele>
        <time>2011-09-25T12:15:46Z</time>
      </trkpt>
      <trkpt lat="45.16366" lon="5.58857">
        <ele>1445</ele>
        <time>2011-09-25T12:15:58Z</time>
      </trkpt>
      <trkpt lat="45.16366" lon="5.58857">
        <ele>1445</ele>
        <time>2011-09-25T12:16:00Z</time>
      </trkpt>
      <trkpt lat="45.16352" lon="5.58821">
        <ele>1450</ele>
        <time>2011-09-25T12:16:04Z</time>
      </trkpt>
      <trkpt lat="45.16349" lon="5.58813">
        <ele>1451</ele>
        <time>2011-09-25T12:16:08Z</time>
      </trkpt>
      <trkpt lat="45.16344" lon="5.58796">
        <ele>1452</ele>
        <time>2011-09-25T12:16:16Z</time>
      </trkpt>
      <trkpt lat="45.16341" lon="5.58789">
        <ele>1453</ele>
        <time>2011-09-25T12:16:20Z</time>
      </trkpt>
      <trkpt lat="45.16336" lon="5.58783">
        <ele>1453</ele>
        <time>2011-09-25T12:16:24Z</time>
      </trkpt>
      <trkpt lat="45.1633" lon="5.58779">
        <ele>1449</ele>
        <time>2011-09-25T12:16:28Z</time>
      </trkpt>
      <trkpt lat="45.16322" lon="5.58776">
        <ele>1449</ele>
        <time>2011-09-25T12:16:32Z</time>
      </trkpt>
      <trkpt lat="45.16316" lon="5.5877">
        <ele>1449</ele>
        <time>2011-09-25T12:16:37Z</time>
      </trkpt>
      <trkpt lat="45.16311" lon="5.58765">
        <ele>1449</ele>
        <time>2011-09-25T12:16:41Z</time>
      </trkpt>
      <trkpt lat="45.16306" lon="5.5876">
        <ele>1448</ele>
        <time>2011-09-25T12:16:45Z</time>
      </trkpt>
      <trkpt lat="45.163" lon="5.58756">
        <ele>1447</ele>
        <time>2011-09-25T12:16:50Z</time>
      </trkpt>
      <trkpt lat="45.163" lon="5.58756">
        <ele>1447</ele>
        <time>2011-09-25T12:17:02Z</time>
      </trkpt>
      <trkpt lat="45.163" lon="5.58756">
        <ele>1447</ele>
        <time>2011-09-25T12:18:11Z</time>
      </trkpt>
      <trkpt lat="45.163" lon="5.58756">
        <ele>1447</ele>
        <time>2011-09-25T12:18:22Z</time>
      </trkpt>
      <trkpt lat="45.163" lon="5.58756">
        <ele>1447</ele>
        <time>2011-09-25T12:19:35Z</time>
      </trkpt>
      <trkpt lat="45.16303" lon="5.5873">
        <ele>1455</ele>
        <time>2011-09-25T12:19:44Z</time>
      </trkpt>
      <trkpt lat="45.16309" lon="5.58726">
        <ele>1456</ele>
        <time>2011-09-25T12:19:52Z</time>
      </trkpt>
      <trkpt lat="45.16309" lon="5.58726">
        <ele>1456</ele>
        <time>2011-09-25T12:20:04Z</time>
      </trkpt>
      <trkpt lat="45.16309" lon="5.58726">
        <ele>1456</ele>
        <time>2011-09-25T12:20:07Z</time>
      </trkpt>
      <trkpt lat="45.16309" lon="5.58726">
        <ele>1456</ele>
        <time>2011-09-25T12:20:19Z</time>
      </trkpt>
      <trkpt lat="45.16309" lon="5.58726">
        <ele>1456</ele>
        <time>2011-09-25T12:20:23Z</time>
      </trkpt>
      <trkpt lat="45.16309" lon="5.58726">
        <ele>1456</ele>
        <time>2011-09-25T12:20:35Z</time>
      </trkpt>
      <trkpt lat="45.16309" lon="5.58726">
        <ele>1456</ele>
        <time>2011-09-25T12:20:42Z</time>
      </trkpt>
      <trkpt lat="45.16309" lon="5.58726">
        <ele>1456</ele>
        <time>2011-09-25T12:20:54Z</time>
      </trkpt>
      <trkpt lat="45.16309" lon="5.58726">
        <ele>1456</ele>
        <time>2011-09-25T12:21:06Z</time>
      </trkpt>
      <trkpt lat="45.16309" lon="5.58726">
        <ele>1456</ele>
        <time>2011-09-25T12:21:18Z</time>
      </trkpt>
      <trkpt lat="45.16309" lon="5.58726">
        <ele>1456</ele>
        <time>2011-09-25T12:21:26Z</time>
      </trkpt>
      <trkpt lat="45.16381" lon="5.58705">
        <ele>1474</ele>
        <time>2011-09-25T12:21:32Z</time>
      </trkpt>
      <trkpt lat="45.16388" lon="5.58704">
        <ele>1475</ele>
        <time>2011-09-25T12:21:44Z</time>
      </trkpt>
      <trkpt lat="45.16388" lon="5.58704">
        <ele>1475</ele>
        <time>2011-09-25T12:21:55Z</time>
      </trkpt>
      <trkpt lat="45.16388" lon="5.58704">
        <ele>1475</ele>
        <time>2011-09-25T12:21:56Z</time>
      </trkpt>
      <trkpt lat="45.16399" lon="5.58696">
        <ele>1477</ele>
        <time>2011-09-25T12:22:06Z</time>
      </trkpt>
      <trkpt lat="45.16399" lon="5.58696">
        <ele>1477</ele>
        <time>2011-09-25T12:22:18Z</time>
      </trkpt>
      <trkpt lat="45.16399" lon="5.58696">
        <ele>1477</ele>
        <time>2011-09-25T12:22:27Z</time>
      </trkpt>
      <trkpt lat="45.16399" lon="5.58696">
        <ele>1477</ele>
        <time>2011-09-25T12:22:39Z</time>
      </trkpt>
      <trkpt lat="45.16399" lon="5.58696">
        <ele>1477</ele>
        <time>2011-09-25T12:22:48Z</time>
      </trkpt>
      <trkpt lat="45.16431" lon="5.58695">
        <ele>1488</ele>
        <time>2011-09-25T12:22:54Z</time>
      </trkpt>
      <trkpt lat="45.16438" lon="5.58694">
        <ele>1488</ele>
        <time>2011-09-25T12:23:02Z</time>
      </trkpt>
      <trkpt lat="45.16446" lon="5.58695">
        <ele>1489</ele>
        <time>2011-09-25T12:23:14Z</time>
      </trkpt>
      <trkpt lat="45.16452" lon="5.58693">
        <ele>1490</ele>
        <time>2011-09-25T12:23:23Z</time>
      </trkpt>
      <trkpt lat="45.16452" lon="5.58693">
        <ele>1490</ele>
        <time>2011-09-25T12:23:35Z</time>
      </trkpt>
      <trkpt lat="45.16452" lon="5.58693">
        <ele>1490</ele>
        <time>2011-09-25T12:23:59Z</time>
      </trkpt>
      <trkpt lat="45.16469" lon="5.5868">
        <ele>1493</ele>
        <time>2011-09-25T12:24:08Z</time>
      </trkpt>
      <trkpt lat="45.16476" lon="5.58681">
        <ele>1494</ele>
        <time>2011-09-25T12:24:16Z</time>
      </trkpt>
      <trkpt lat="45.16482" lon="5.58678">
        <ele>1496</ele>
        <time>2011-09-25T12:24:22Z</time>
      </trkpt>
      <trkpt lat="45.16482" lon="5.58678">
        <ele>1496</ele>
        <time>2011-09-25T12:24:34Z</time>
      </trkpt>
      <trkpt lat="45.16482" lon="5.58678">
        <ele>1496</ele>
        <time>2011-09-25T12:24:48Z</time>
      </trkpt>
      <trkpt lat="45.16501" lon="5.58668">
        <ele>1505</ele>
        <time>2011-09-25T12:24:57Z</time>
      </trkpt>
      <trkpt lat="45.16501" lon="5.58668">
        <ele>1505</ele>
        <time>2011-09-25T12:25:09Z</time>
      </trkpt>
      <trkpt lat="45.16501" lon="5.58668">
        <ele>1505</ele>
        <time>2011-09-25T12:27:17Z</time>
      </trkpt>
      <trkpt lat="45.16519" lon="5.58672">
        <ele>1505</ele>
        <time>2011-09-25T12:27:21Z</time>
      </trkpt>
      <trkpt lat="45.16519" lon="5.58672">
        <ele>1505</ele>
        <time>2011-09-25T12:27:33Z</time>
      </trkpt>
      <trkpt lat="45.16519" lon="5.58672">
        <ele>1505</ele>
        <time>2011-09-25T12:28:22Z</time>
      </trkpt>
      <trkpt lat="45.16519" lon="5.58672">
        <ele>1505</ele>
        <time>2011-09-25T12:28:34Z</time>
      </trkpt>
      <trkpt lat="45.16519" lon="5.58672">
        <ele>1505</ele>
        <time>2011-09-25T12:28:53Z</time>
      </trkpt>
      <trkpt lat="45.16537" lon="5.58661">
        <ele>1516</ele>
        <time>2011-09-25T12:28:58Z</time>
      </trkpt>
      <trkpt lat="45.16551" lon="5.58661">
        <ele>1517</ele>
        <time>2011-09-25T12:29:08Z</time>
      </trkpt>
      <trkpt lat="45.16551" lon="5.58661">
        <ele>1517</ele>
        <time>2011-09-25T12:29:20Z</time>
      </trkpt>
      <trkpt lat="45.16551" lon="5.58661">
        <ele>1517</ele>
        <time>2011-09-25T12:29:23Z</time>
      </trkpt>
      <trkpt lat="45.16551" lon="5.58661">
        <ele>1517</ele>
        <time>2011-09-25T12:29:35Z</time>
      </trkpt>
      <trkpt lat="45.16551" lon="5.58661">
        <ele>1517</ele>
        <time>2011-09-25T12:29:37Z</time>
      </trkpt>
      <trkpt lat="45.16584" lon="5.58656">
        <ele>1521</ele>
        <time>2011-09-25T12:29:43Z</time>
      </trkpt>
      <trkpt lat="45.16584" lon="5.58656">
        <ele>1521</ele>
        <time>2011-09-25T12:29:55Z</time>
      </trkpt>
      <trkpt lat="45.16584" lon="5.58656">
        <ele>1521</ele>
        <time>2011-09-25T12:29:56Z</time>
      </trkpt>
      <trkpt lat="45.16605" lon="5.58656">
        <ele>1526</ele>
        <time>2011-09-25T12:30:02Z</time>
      </trkpt>
      <trkpt lat="45.16612" lon="5.58655">
        <ele>1527</ele>
        <time>2011-09-25T12:30:06Z</time>
      </trkpt>
      <trkpt lat="45.16625" lon="5.58652">
        <ele>1529</ele>
        <time>2011-09-25T12:30:17Z</time>
      </trkpt>
      <trkpt lat="45.16631" lon="5.5865">
        <ele>1530</ele>
        <time>2011-09-25T12:30:22Z</time>
      </trkpt>
      <trkpt lat="45.16639" lon="5.58649">
        <ele>1531</ele>
        <time>2011-09-25T12:30:27Z</time>
      </trkpt>
      <trkpt lat="45.16646" lon="5.58648">
        <ele>1531</ele>
        <time>2011-09-25T12:30:32Z</time>
      </trkpt>
      <trkpt lat="45.16653" lon="5.58647">
        <ele>1531</ele>
        <time>2011-09-25T12:30:37Z</time>
      </trkpt>
      <trkpt lat="45.16653" lon="5.58647">
        <ele>1531</ele>
        <time>2011-09-25T12:30:49Z</time>
      </trkpt>
      <trkpt lat="45.16653" lon="5.58647">
        <ele>1531</ele>
        <time>2011-09-25T12:30:49Z</time>
      </trkpt>
      <trkpt lat="45.16679" lon="5.58652">
        <ele>1538</ele>
        <time>2011-09-25T12:30:59Z</time>
      </trkpt>
      <trkpt lat="45.16679" lon="5.58652">
        <ele>1538</ele>
        <time>2011-09-25T12:31:11Z</time>
      </trkpt>
      <trkpt lat="45.16679" lon="5.58652">
        <ele>1538</ele>
        <time>2011-09-25T12:31:17Z</time>
      </trkpt>
      <trkpt lat="45.16679" lon="5.58652">
        <ele>1538</ele>
        <time>2011-09-25T12:31:29Z</time>
      </trkpt>
      <trkpt lat="45.16679" lon="5.58652">
        <ele>1538</ele>
        <time>2011-09-25T12:31:32Z</time>
      </trkpt>
      <trkpt lat="45.16679" lon="5.58652">
        <ele>1538</ele>
        <time>2011-09-25T12:31:44Z</time>
      </trkpt>
      <trkpt lat="45.16679" lon="5.58652">
        <ele>1538</ele>
        <time>2011-09-25T12:31:55Z</time>
      </trkpt>
      <trkpt lat="45.16679" lon="5.58652">
        <ele>1538</ele>
        <time>2011-09-25T12:32:07Z</time>
      </trkpt>
      <trkpt lat="45.16679" lon="5.58652">
        <ele>1538</ele>
        <time>2011-09-25T12:32:17Z</time>
      </trkpt>
      <trkpt lat="45.16742" lon="5.58647">
        <ele>1542</ele>
        <time>2011-09-25T12:32:20Z</time>
      </trkpt>
      <trkpt lat="45.16742" lon="5.58647">
        <ele>1542</ele>
        <time>2011-09-25T12:32:32Z</time>
      </trkpt>
      <trkpt lat="45.16742" lon="5.58647">
        <ele>1542</ele>
        <time>2011-09-25T12:32:36Z</time>
      </trkpt>
      <trkpt lat="45.16769" lon="5.58641">
        <ele>1550</ele>
        <time>2011-09-25T12:32:47Z</time>
      </trkpt>
      <trkpt lat="45.16776" lon="5.58644">
        <ele>1550</ele>
        <time>2011-09-25T12:32:53Z</time>
      </trkpt>
      <trkpt lat="45.16783" lon="5.58645">
        <ele>1551</ele>
        <time>2011-09-25T12:32:59Z</time>
      </trkpt>
      <trkpt lat="45.16783" lon="5.58645">
        <ele>1551</ele>
        <time>2011-09-25T12:33:11Z</time>
      </trkpt>
      <trkpt lat="45.16783" lon="5.58645">
        <ele>1551</ele>
        <time>2011-09-25T12:33:30Z</time>
      </trkpt>
      <trkpt lat="45.16807" lon="5.58639">
        <ele>1553</ele>
        <time>2011-09-25T12:33:35Z</time>
      </trkpt>
      <trkpt lat="45.16814" lon="5.58641">
        <ele>1553</ele>
        <time>2011-09-25T12:33:41Z</time>
      </trkpt>
      <trkpt lat="45.1682" lon="5.58647">
        <ele>1553</ele>
        <time>2011-09-25T12:33:48Z</time>
      </trkpt>
      <trkpt lat="45.1682" lon="5.58647">
        <ele>1553</ele>
        <time>2011-09-25T12:34:00Z</time>
      </trkpt>
      <trkpt lat="45.1682" lon="5.58647">
        <ele>1553</ele>
        <time>2011-09-25T12:34:12Z</time>
      </trkpt>
      <trkpt lat="45.16856" lon="5.58655">
        <ele>1559</ele>
        <time>2011-09-25T12:34:20Z</time>
      </trkpt>
      <trkpt lat="45.16863" lon="5.58659">
        <ele>1560</ele>
        <time>2011-09-25T12:34:25Z</time>
      </trkpt>
      <trkpt lat="45.1687" lon="5.5866">
        <ele>1561</ele>
        <time>2011-09-25T12:34:33Z</time>
      </trkpt>
      <trkpt lat="45.1687" lon="5.5866">
        <ele>1561</ele>
        <time>2011-09-25T12:34:45Z</time>
      </trkpt>
      <trkpt lat="45.1687" lon="5.5866">
        <ele>1561</ele>
        <time>2011-09-25T12:34:47Z</time>
      </trkpt>
      <trkpt lat="45.16891" lon="5.58663">
        <ele>1562</ele>
        <time>2011-09-25T12:34:51Z</time>
      </trkpt>
      <trkpt lat="45.16898" lon="5.58663">
        <ele>1563</ele>
        <time>2011-09-25T12:34:56Z</time>
      </trkpt>
      <trkpt lat="45.16904" lon="5.58662">
        <ele>1563</ele>
        <time>2011-09-25T12:35:01Z</time>
      </trkpt>
      <trkpt lat="45.16911" lon="5.58661">
        <ele>1563</ele>
        <time>2011-09-25T12:35:06Z</time>
      </trkpt>
      <trkpt lat="45.16911" lon="5.58661">
        <ele>1563</ele>
        <time>2011-09-25T12:35:18Z</time>
      </trkpt>
      <trkpt lat="45.16911" lon="5.58661">
        <ele>1563</ele>
        <time>2011-09-25T12:35:18Z</time>
      </trkpt>
      <trkpt lat="45.16931" lon="5.58659">
        <ele>1567</ele>
        <time>2011-09-25T12:35:24Z</time>
      </trkpt>
      <trkpt lat="45.16945" lon="5.58663">
        <ele>1568</ele>
        <time>2011-09-25T12:35:34Z</time>
      </trkpt>
      <trkpt lat="45.16952" lon="5.58665">
        <ele>1569</ele>
        <time>2011-09-25T12:35:40Z</time>
      </trkpt>
      <trkpt lat="45.1696" lon="5.58664">
        <ele>1569</ele>
        <time>2011-09-25T12:35:46Z</time>
      </trkpt>
      <trkpt lat="45.16966" lon="5.58664">
        <ele>1570</ele>
        <time>2011-09-25T12:35:51Z</time>
      </trkpt>
      <trkpt lat="45.16981" lon="5.58666">
        <ele>1570</ele>
        <time>2011-09-25T12:36:02Z</time>
      </trkpt>
      <trkpt lat="45.16981" lon="5.58666">
        <ele>1570</ele>
        <time>2011-09-25T12:36:13Z</time>
      </trkpt>
      <trkpt lat="45.16981" lon="5.58666">
        <ele>1570</ele>
        <time>2011-09-25T12:36:15Z</time>
      </trkpt>
      <trkpt lat="45.17009" lon="5.58676">
        <ele>1572</ele>
        <time>2011-09-25T12:36:19Z</time>
      </trkpt>
      <trkpt lat="45.17009" lon="5.58676">
        <ele>1572</ele>
        <time>2011-09-25T12:36:31Z</time>
      </trkpt>
      <trkpt lat="45.17009" lon="5.58676">
        <ele>1572</ele>
        <time>2011-09-25T12:36:35Z</time>
      </trkpt>
      <trkpt lat="45.17009" lon="5.58676">
        <ele>1572</ele>
        <time>2011-09-25T12:36:47Z</time>
      </trkpt>
      <trkpt lat="45.17009" lon="5.58676">
        <ele>1572</ele>
        <time>2011-09-25T12:36:52Z</time>
      </trkpt>
      <trkpt lat="45.17009" lon="5.58676">
        <ele>1572</ele>
        <time>2011-09-25T12:37:04Z</time>
      </trkpt>
      <trkpt lat="45.17009" lon="5.58676">
        <ele>1572</ele>
        <time>2011-09-25T12:37:09Z</time>
      </trkpt>
      <trkpt lat="45.17009" lon="5.58676">
        <ele>1572</ele>
        <time>2011-09-25T12:37:21Z</time>
      </trkpt>
      <trkpt lat="45.17009" lon="5.58676">
        <ele>1572</ele>
        <time>2011-09-25T12:37:21Z</time>
      </trkpt>
      <trkpt lat="45.17009" lon="5.58676">
        <ele>1572</ele>
        <time>2011-09-25T12:37:33Z</time>
      </trkpt>
      <trkpt lat="45.17009" lon="5.58676">
        <ele>1572</ele>
        <time>2011-09-25T12:37:44Z</time>
      </trkpt>
      <trkpt lat="45.17076" lon="5.58675">
        <ele>1575</ele>
        <time>2011-09-25T12:37:47Z</time>
      </trkpt>
      <trkpt lat="45.17082" lon="5.58671">
        <ele>1575</ele>
        <time>2011-09-25T12:37:52Z</time>
      </trkpt>
      <trkpt lat="45.17088" lon="5.58668">
        <ele>1577</ele>
        <time>2011-09-25T12:37:57Z</time>
      </trkpt>
      <trkpt lat="45.17095" lon="5.58665">
        <ele>1578</ele>
        <time>2011-09-25T12:38:03Z</time>
      </trkpt>
      <trkpt lat="45.17095" lon="5.58665">
        <ele>1578</ele>
        <time>2011-09-25T12:38:15Z</time>
      </trkpt>
      <trkpt lat="45.17095" lon="5.58665">
        <ele>1578</ele>
        <time>2011-09-25T12:38:16Z</time>
      </trkpt>
      <trkpt lat="45.17095" lon="5.58665">
        <ele>1578</ele>
        <time>2011-09-25T12:38:28Z</time>
      </trkpt>
      <trkpt lat="45.17095" lon="5.58665">
        <ele>1578</ele>
        <time>2011-09-25T12:38:33Z</time>
      </trkpt>
      <trkpt lat="45.17142" lon="5.58661">
        <ele>1582</ele>
        <time>2011-09-25T12:38:44Z</time>
      </trkpt>
      <trkpt lat="45.17149" lon="5.58665">
        <ele>1583</ele>
        <time>2011-09-25T12:38:50Z</time>
      </trkpt>
      <trkpt lat="45.17149" lon="5.58665">
        <ele>1583</ele>
        <time>2011-09-25T12:39:02Z</time>
      </trkpt>
      <trkpt lat="45.17149" lon="5.58665">
        <ele>1583</ele>
        <time>2011-09-25T12:39:05Z</time>
      </trkpt>
      <trkpt lat="45.17149" lon="5.58665">
        <ele>1583</ele>
        <time>2011-09-25T12:39:17Z</time>
      </trkpt>
      <trkpt lat="45.17149" lon="5.58665">
        <ele>1583</ele>
        <time>2011-09-25T12:39:25Z</time>
      </trkpt>
      <trkpt lat="45.17149" lon="5.58665">
        <ele>1583</ele>
        <time>2011-09-25T12:39:37Z</time>
      </trkpt>
      <trkpt lat="45.17149" lon="5.58665">
        <ele>1583</ele>
        <time>2011-09-25T12:39:55Z</time>
      </trkpt>
      <trkpt lat="45.17149" lon="5.58665">
        <ele>1583</ele>
        <time>2011-09-25T12:40:07Z</time>
      </trkpt>
      <trkpt lat="45.17149" lon="5.58665">
        <ele>1583</ele>
        <time>2011-09-25T12:40:07Z</time>
      </trkpt>
      <trkpt lat="45.17149" lon="5.58665">
        <ele>1583</ele>
        <time>2011-09-25T12:40:19Z</time>
      </trkpt>
      <trkpt lat="45.17149" lon="5.58665">
        <ele>1583</ele>
        <time>2011-09-25T12:40:19Z</time>
      </trkpt>
      <trkpt lat="45.17149" lon="5.58665">
        <ele>1583</ele>
        <time>2011-09-25T12:40:31Z</time>
      </trkpt>
      <trkpt lat="45.17149" lon="5.58665">
        <ele>1583</ele>
        <time>2011-09-25T12:40:31Z</time>
      </trkpt>
      <trkpt lat="45.17234" lon="5.58712">
        <ele>1589</ele>
        <time>2011-09-25T12:40:41Z</time>
      </trkpt>
      <trkpt lat="45.17242" lon="5.58715">
        <ele>1589</ele>
        <time>2011-09-25T12:40:48Z</time>
      </trkpt>
      <trkpt lat="45.17248" lon="5.58721">
        <ele>1589</ele>
        <time>2011-09-25T12:40:53Z</time>
      </trkpt>
      <trkpt lat="45.17255" lon="5.58726">
        <ele>1592</ele>
        <time>2011-09-25T12:40:58Z</time>
      </trkpt>
      <trkpt lat="45.17261" lon="5.5873">
        <ele>1592</ele>
        <time>2011-09-25T12:41:02Z</time>
      </trkpt>
      <trkpt lat="45.17269" lon="5.58732">
        <ele>1592</ele>
        <time>2011-09-25T12:41:06Z</time>
      </trkpt>
      <trkpt lat="45.17283" lon="5.58738">
        <ele>1593</ele>
        <time>2011-09-25T12:41:15Z</time>
      </trkpt>
      <trkpt lat="45.17295" lon="5.58745">
        <ele>1593</ele>
        <time>2011-09-25T12:41:20Z</time>
      </trkpt>
      <trkpt lat="45.17302" lon="5.58749">
        <ele>1593</ele>
        <time>2011-09-25T12:41:25Z</time>
      </trkpt>
      <trkpt lat="45.17316" lon="5.58755">
        <ele>1592</ele>
        <time>2011-09-25T12:41:33Z</time>
      </trkpt>
      <trkpt lat="45.17323" lon="5.58757">
        <ele>1593</ele>
        <time>2011-09-25T12:41:37Z</time>
      </trkpt>
      <trkpt lat="45.1733" lon="5.58758">
        <ele>1593</ele>
        <time>2011-09-25T12:41:42Z</time>
      </trkpt>
      <trkpt lat="45.17337" lon="5.58762">
        <ele>1594</ele>
        <time>2011-09-25T12:41:46Z</time>
      </trkpt>
      <trkpt lat="45.17343" lon="5.58765">
        <ele>1594</ele>
        <time>2011-09-25T12:41:50Z</time>
      </trkpt>
      <trkpt lat="45.1735" lon="5.58771">
        <ele>1594</ele>
        <time>2011-09-25T12:41:54Z</time>
      </trkpt>
      <trkpt lat="45.17357" lon="5.58775">
        <ele>1594</ele>
        <time>2011-09-25T12:41:59Z</time>
      </trkpt>
      <trkpt lat="45.17363" lon="5.58779">
        <ele>1594</ele>
        <time>2011-09-25T12:42:02Z</time>
      </trkpt>
      <trkpt lat="45.17374" lon="5.58792">
        <ele>1594</ele>
        <time>2011-09-25T12:42:09Z</time>
      </trkpt>
      <trkpt lat="45.17386" lon="5.58802">
        <ele>1594</ele>
        <time>2011-09-25T12:42:16Z</time>
      </trkpt>
      <trkpt lat="45.17399" lon="5.58808">
        <ele>1594</ele>
        <time>2011-09-25T12:42:24Z</time>
      </trkpt>
      <trkpt lat="45.17399" lon="5.58808">
        <ele>1594</ele>
        <time>2011-09-25T12:42:36Z</time>
      </trkpt>
      <trkpt lat="45.17399" lon="5.58808">
        <ele>1594</ele>
        <time>2011-09-25T12:42:37Z</time>
      </trkpt>
      <trkpt lat="45.17426" lon="5.58816">
        <ele>1595</ele>
        <time>2011-09-25T12:42:40Z</time>
      </trkpt>
      <trkpt lat="45.17431" lon="5.58823">
        <ele>1595</ele>
        <time>2011-09-25T12:42:44Z</time>
      </trkpt>
      <trkpt lat="45.17437" lon="5.58829">
        <ele>1595</ele>
        <time>2011-09-25T12:42:49Z</time>
      </trkpt>
      <trkpt lat="45.17445" lon="5.58832">
        <ele>1595</ele>
        <time>2011-09-25T12:42:56Z</time>
      </trkpt>
      <trkpt lat="45.17452" lon="5.58832">
        <ele>1595</ele>
        <time>2011-09-25T12:42:59Z</time>
      </trkpt>
      <trkpt lat="45.17459" lon="5.58834">
        <ele>1591</ele>
        <time>2011-09-25T12:43:03Z</time>
      </trkpt>
      <trkpt lat="45.17465" lon="5.58837">
        <ele>1591</ele>
        <time>2011-09-25T12:43:07Z</time>
      </trkpt>
      <trkpt lat="45.17473" lon="5.58839">
        <ele>1591</ele>
        <time>2011-09-25T12:43:11Z</time>
      </trkpt>
      <trkpt lat="45.1748" lon="5.58843">
        <ele>1591</ele>
        <time>2011-09-25T12:43:15Z</time>
      </trkpt>
      <trkpt lat="45.17486" lon="5.58847">
        <ele>1591</ele>
        <time>2011-09-25T12:43:20Z</time>
      </trkpt>
      <trkpt lat="45.17492" lon="5.5885">
        <ele>1591</ele>
        <time>2011-09-25T12:43:26Z</time>
      </trkpt>
      <trkpt lat="45.17511" lon="5.58857">
        <ele>1591</ele>
        <time>2011-09-25T12:43:30Z</time>
      </trkpt>
      <trkpt lat="45.17518" lon="5.58858">
        <ele>1591</ele>
        <time>2011-09-25T12:43:32Z</time>
      </trkpt>
      <trkpt lat="45.17525" lon="5.58863">
        <ele>1591</ele>
        <time>2011-09-25T12:43:36Z</time>
      </trkpt>
      <trkpt lat="45.17531" lon="5.58869">
        <ele>1591</ele>
        <time>2011-09-25T12:43:40Z</time>
      </trkpt>
      <trkpt lat="45.17545" lon="5.58876">
        <ele>1591</ele>
        <time>2011-09-25T12:43:46Z</time>
      </trkpt>
      <trkpt lat="45.17552" lon="5.5888">
        <ele>1590</ele>
        <time>2011-09-25T12:43:49Z</time>
      </trkpt>
      <trkpt lat="45.17558" lon="5.58883">
        <ele>1590</ele>
        <time>2011-09-25T12:43:53Z</time>
      </trkpt>
      <trkpt lat="45.17565" lon="5.58889">
        <ele>1590</ele>
        <time>2011-09-25T12:43:57Z</time>
      </trkpt>
      <trkpt lat="45.17572" lon="5.58896">
        <ele>1590</ele>
        <time>2011-09-25T12:44:02Z</time>
      </trkpt>
      <trkpt lat="45.17578" lon="5.58902">
        <ele>1589</ele>
        <time>2011-09-25T12:44:06Z</time>
      </trkpt>
      <trkpt lat="45.17583" lon="5.58907">
        <ele>1590</ele>
        <time>2011-09-25T12:44:10Z</time>
      </trkpt>
      <trkpt lat="45.1759" lon="5.58913">
        <ele>1590</ele>
        <time>2011-09-25T12:44:15Z</time>
      </trkpt>
      <trkpt lat="45.17605" lon="5.58922">
        <ele>1588</ele>
        <time>2011-09-25T12:44:23Z</time>
      </trkpt>
      <trkpt lat="45.17621" lon="5.58928">
        <ele>1588</ele>
        <time>2011-09-25T12:44:26Z</time>
      </trkpt>
      <trkpt lat="45.17638" lon="5.58935">
        <ele>1588</ele>
        <time>2011-09-25T12:44:30Z</time>
      </trkpt>
      <trkpt lat="45.17657" lon="5.58945">
        <ele>1588</ele>
        <time>2011-09-25T12:44:34Z</time>
      </trkpt>
      <trkpt lat="45.17684" lon="5.58959">
        <ele>1586</ele>
        <time>2011-09-25T12:44:38Z</time>
      </trkpt>
      <trkpt lat="45.17711" lon="5.58978">
        <ele>1585</ele>
        <time>2011-09-25T12:44:42Z</time>
      </trkpt>
      <trkpt lat="45.17729" lon="5.58985">
        <ele>1583</ele>
        <time>2011-09-25T12:44:45Z</time>
      </trkpt>
      <trkpt lat="45.17749" lon="5.58993">
        <ele>1581</ele>
        <time>2011-09-25T12:44:49Z</time>
      </trkpt>
      <trkpt lat="45.17765" lon="5.58995">
        <ele>1580</ele>
        <time>2011-09-25T12:44:53Z</time>
      </trkpt>
      <trkpt lat="45.17783" lon="5.58994">
        <ele>1579</ele>
        <time>2011-09-25T12:44:58Z</time>
      </trkpt>
      <trkpt lat="45.17794" lon="5.58993">
        <ele>1579</ele>
        <time>2011-09-25T12:44:59Z</time>
      </trkpt>
      <trkpt lat="45.17836" lon="5.58987">
        <ele>1574</ele>
        <time>2011-09-25T12:45:06Z</time>
      </trkpt>
      <trkpt lat="45.17858" lon="5.58984">
        <ele>1575</ele>
        <time>2011-09-25T12:45:10Z</time>
      </trkpt>
      <trkpt lat="45.1788" lon="5.58981">
        <ele>1575</ele>
        <time>2011-09-25T12:45:14Z</time>
      </trkpt>
      <trkpt lat="45.17906" lon="5.58993">
        <ele>1573</ele>
        <time>2011-09-25T12:45:18Z</time>
      </trkpt>
      <trkpt lat="45.17938" lon="5.59005">
        <ele>1566</ele>
        <time>2011-09-25T12:45:22Z</time>
      </trkpt>
      <trkpt lat="45.17971" lon="5.59016">
        <ele>1562</ele>
        <time>2011-09-25T12:45:26Z</time>
      </trkpt>
      <trkpt lat="45.17971" lon="5.59016">
        <ele>1562</ele>
        <time>2011-09-25T12:45:38Z</time>
      </trkpt>
      <trkpt lat="45.17971" lon="5.59016">
        <ele>1562</ele>
        <time>2011-09-25T13:34:58Z</time>
      </trkpt>
      <trkpt lat="45.17971" lon="5.59016">
        <ele>1562</ele>
        <time>2011-09-25T13:35:09Z</time>
      </trkpt>
      <trkpt lat="45.17971" lon="5.59016">
        <ele>1562</ele>
        <time>2011-09-25T13:39:11Z</time>
      </trkpt>
      <trkpt lat="45.17971" lon="5.59016">
        <ele>1562</ele>
        <time>2011-09-25T13:39:22Z</time>
      </trkpt>
      <trkpt lat="45.17971" lon="5.59016">
        <ele>1562</ele>
        <time>2011-09-25T13:39:31Z</time>
      </trkpt>
      <trkpt lat="45.17971" lon="5.59016">
        <ele>1562</ele>
        <time>2011-09-25T13:39:42Z</time>
      </trkpt>
      <trkpt lat="45.17971" lon="5.59016">
        <ele>1562</ele>
        <time>2011-09-25T13:39:47Z</time>
      </trkpt>
      <trkpt lat="45.17971" lon="5.59016">
        <ele>1562</ele>
        <time>2011-09-25T13:39:58Z</time>
      </trkpt>
      <trkpt lat="45.17971" lon="5.59016">
        <ele>1562</ele>
        <time>2011-09-25T13:40:01Z</time>
      </trkpt>
      <trkpt lat="45.17923" lon="5.59006">
        <ele>1568</ele>
        <time>2011-09-25T13:40:06Z</time>
      </trkpt>
      <trkpt lat="45.17917" lon="5.59001">
        <ele>1570</ele>
        <time>2011-09-25T13:40:12Z</time>
      </trkpt>
      <trkpt lat="45.17911" lon="5.58997">
        <ele>1572</ele>
        <time>2011-09-25T13:40:19Z</time>
      </trkpt>
      <trkpt lat="45.17906" lon="5.58991">
        <ele>1573</ele>
        <time>2011-09-25T13:40:27Z</time>
      </trkpt>
      <trkpt lat="45.17906" lon="5.58991">
        <ele>1573</ele>
        <time>2011-09-25T13:40:38Z</time>
      </trkpt>
      <trkpt lat="45.17906" lon="5.58991">
        <ele>1573</ele>
        <time>2011-09-25T13:40:45Z</time>
      </trkpt>
      <trkpt lat="45.17906" lon="5.58991">
        <ele>1573</ele>
        <time>2011-09-25T13:40:56Z</time>
      </trkpt>
      <trkpt lat="45.17906" lon="5.58991">
        <ele>1573</ele>
        <time>2011-09-25T13:41:05Z</time>
      </trkpt>
      <trkpt lat="45.17906" lon="5.58991">
        <ele>1573</ele>
        <time>2011-09-25T13:41:16Z</time>
      </trkpt>
      <trkpt lat="45.17906" lon="5.58991">
        <ele>1573</ele>
        <time>2011-09-25T13:47:11Z</time>
      </trkpt>
      <trkpt lat="45.17886" lon="5.58958">
        <ele>1576</ele>
        <time>2011-09-25T13:47:15Z</time>
      </trkpt>
      <trkpt lat="45.17882" lon="5.58992">
        <ele>1575</ele>
        <time>2011-09-25T13:47:20Z</time>
      </trkpt>
      <trkpt lat="45.179" lon="5.59054">
        <ele>1569</ele>
        <time>2011-09-25T13:47:25Z</time>
      </trkpt>
      <trkpt lat="45.1791" lon="5.59127">
        <ele>1562</ele>
        <time>2011-09-25T13:47:29Z</time>
      </trkpt>
      <trkpt lat="45.17928" lon="5.59263">
        <ele>1541</ele>
        <time>2011-09-25T13:47:33Z</time>
      </trkpt>
      <trkpt lat="45.17932" lon="5.59414">
        <ele>1535</ele>
        <time>2011-09-25T13:47:37Z</time>
      </trkpt>
      <trkpt lat="45.17927" lon="5.59603">
        <ele>1399</ele>
        <time>2011-09-25T13:47:41Z</time>
      </trkpt>
      <trkpt lat="45.17927" lon="5.59603">
        <ele>1399</ele>
        <time>2011-09-25T13:47:52Z</time>
      </trkpt>
      <trkpt lat="45.17927" lon="5.59603">
        <ele>1399</ele>
        <time>2011-09-25T13:50:34Z</time>
      </trkpt>
      <trkpt lat="45.19874" lon="5.74039">
        <ele>217</ele>
        <time>2011-09-25T13:50:42Z</time>
      </trkpt>
      <trkpt lat="45.19926" lon="5.74159">
        <ele>216</ele>
        <time>2011-09-25T13:50:46Z</time>
      </trkpt>
      <trkpt lat="45.19958" lon="5.7424">
        <ele>216</ele>
        <time>2011-09-25T13:50:49Z</time>
      </trkpt>
      <trkpt lat="45.20009" lon="5.74368">
        <ele>217</ele>
        <time>2011-09-25T13:50:55Z</time>
      </trkpt>
      <trkpt lat="45.20037" lon="5.74429">
        <ele>216</ele>
        <time>2011-09-25T13:50:59Z</time>
      </trkpt>
      <trkpt lat="45.20052" lon="5.74472">
        <ele>215</ele>
        <time>2011-09-25T13:51:02Z</time>
      </trkpt>
      <trkpt lat="45.20072" lon="5.74519">
        <ele>215</ele>
        <time>2011-09-25T13:51:07Z</time>
      </trkpt>
      <trkpt lat="45.20088" lon="5.74542">
        <ele>218</ele>
        <time>2011-09-25T13:51:11Z</time>
      </trkpt>
      <trkpt lat="45.20087" lon="5.74551">
        <ele>218</ele>
        <time>2011-09-25T13:51:15Z</time>
      </trkpt>
      <trkpt lat="45.20092" lon="5.74555">
        <ele>218</ele>
        <time>2011-09-25T13:51:25Z</time>
      </trkpt>
      <trkpt lat="45.20092" lon="5.74555">
        <ele>218</ele>
        <time>2011-09-25T13:51:36Z</time>
      </trkpt>
      <trkpt lat="45.20092" lon="5.74555">
        <ele>218</ele>
        <time>2011-09-25T13:54:02Z</time>
      </trkpt>
      <trkpt lat="45.20109" lon="5.74573">
        <ele>219</ele>
        <time>2011-09-25T13:54:07Z</time>
      </trkpt>
      <trkpt lat="45.20109" lon="5.74573">
        <ele>219</ele>
        <time>2011-09-25T13:54:18Z</time>
      </trkpt>
      <trkpt lat="45.20109" lon="5.74573">
        <ele>219</ele>
        <time>2011-09-25T13:54:37Z</time>
      </trkpt>
      <trkpt lat="45.20103" lon="5.74589">
        <ele>218</ele>
        <time>2011-09-25T13:54:42Z</time>
      </trkpt>
      <trkpt lat="45.20093" lon="5.74608">
        <ele>218</ele>
        <time>2011-09-25T13:54:48Z</time>
      </trkpt>
      <trkpt lat="45.20093" lon="5.74608">
        <ele>218</ele>
        <time>2011-09-25T13:54:59Z</time>
      </trkpt>
      <trkpt lat="45.20093" lon="5.74608">
        <ele>218</ele>
        <time>2011-09-25T13:55:10Z</time>
      </trkpt>
      <trkpt lat="45.20074" lon="5.74619">
        <ele>217</ele>
        <time>2011-09-25T13:55:15Z</time>
      </trkpt>
      <trkpt lat="45.20067" lon="5.74612">
        <ele>217</ele>
        <time>2011-09-25T13:55:18Z</time>
      </trkpt>
      <trkpt lat="45.20058" lon="5.7459">
        <ele>217</ele>
        <time>2011-09-25T13:55:22Z</time>
      </trkpt>
      <trkpt lat="45.20042" lon="5.74548">
        <ele>215</ele>
        <time>2011-09-25T13:55:27Z</time>
      </trkpt>
      <trkpt lat="45.20034" lon="5.74522">
        <ele>215</ele>
        <time>2011-09-25T13:55:30Z</time>
      </trkpt>
      <trkpt lat="45.20033" lon="5.74499">
        <ele>215</ele>
        <time>2011-09-25T13:55:33Z</time>
      </trkpt>
      <trkpt lat="45.2004" lon="5.74475">
        <ele>215</ele>
        <time>2011-09-25T13:55:37Z</time>
      </trkpt>
      <trkpt lat="45.20045" lon="5.74447">
        <ele>215</ele>
        <time>2011-09-25T13:55:43Z</time>
      </trkpt>
      <trkpt lat="45.20028" lon="5.74442">
        <ele>216</ele>
        <time>2011-09-25T13:55:51Z</time>
      </trkpt>
      <trkpt lat="45.20022" lon="5.74461">
        <ele>215</ele>
        <time>2011-09-25T13:55:55Z</time>
      </trkpt>
      <trkpt lat="45.20019" lon="5.7448">
        <ele>215</ele>
        <time>2011-09-25T13:55:59Z</time>
      </trkpt>
      <trkpt lat="45.20019" lon="5.7448">
        <ele>215</ele>
        <time>2011-09-25T13:56:10Z</time>
      </trkpt>
      <trkpt lat="45.20019" lon="5.7448">
        <ele>215</ele>
        <time>2011-09-25T13:56:11Z</time>
      </trkpt>
      <trkpt lat="45.20019" lon="5.7448">
        <ele>215</ele>
        <time>2011-09-25T13:56:22Z</time>
      </trkpt>
      <trkpt lat="45.20019" lon="5.7448">
        <ele>215</ele>
        <time>2011-09-25T13:56:25Z</time>
      </trkpt>
      <trkpt lat="45.2" lon="5.74555">
        <ele>216</ele>
        <time>2011-09-25T13:56:30Z</time>
      </trkpt>
      <trkpt lat="45.20002" lon="5.74532">
        <ele>215</ele>
        <time>2011-09-25T13:56:36Z</time>
      </trkpt>
      <trkpt lat="45.20002" lon="5.74532">
        <ele>215</ele>
        <time>2011-09-25T13:56:47Z</time>
      </trkpt>
      <trkpt lat="45.20002" lon="5.74532">
        <ele>215</ele>
        <time>2011-09-25T16:50:12Z</time>
      </trkpt>
    </trkseg>
  </trk>
</gpx>